Observation data for Dell City 1N on 11/19/2019      Previous  Date  Next       Current Mesonet Observations  Soil Data  Daily Summary Page  Observations in Plain Language
KDC1 190600Z 34007KT 06/M02 A3005 RMK A01 T00621015  RH  058%=      5-min Rain = 0
KDC1 190601Z 34007KT 06/M02 A3005 RMK A01 T00581017  RH  058%=      5-min Rain = 0
KDC1 190602Z 34008KT 05/M02 A3005 RMK A01 T00521018  RH  060%=      5-min Rain = 0
KDC1 190603Z 34008KT 05/M02 A3005 RMK A01 T00481018  RH  062%=      5-min Rain = 0
KDC1 190604Z 35008KT 05/M02 A3005 RMK A01 T00461018  RH  063%=      5-min Rain = 0
KDC1 190605Z 35008KT 05/M02 A3005 RMK A01 T00491018  RH  062%=      5-min Rain = 0
KDC1 190606Z 36008KT 05/M02 A3005 RMK A01 T00541016  RH  060%=      5-min Rain = 0
KDC1 190607Z 35007KT 06/M02 A3005 RMK A01 T00601016  RH  058%=      5-min Rain = 0
KDC1 190608Z 00006KT 06/M02 A3005 RMK A01 T00631016  RH  057%=      5-min Rain = 0
KDC1 190609Z 00007KT 07/M02 A3005 RMK A01 T00651016  RH  056%=      5-min Rain = 0
KDC1 190610Z 00007KT 07/M02 A3005 RMK A01 T00651017  RH  056%=      5-min Rain = 0
KDC1 190611Z 36006KT 07/M02 A3005 RMK A01 T00651017  RH  056%=      5-min Rain = 0
KDC1 190612Z 36006KT 07/M02 A3005 RMK A01 T00651017  RH  056%=      5-min Rain = 0
KDC1 190613Z 36006KT 06/M02 A3005 RMK A01 T00641017  RH  056%=      5-min Rain = 0
KDC1 190614Z 36005KT 06/M02 A3005 RMK A01 T00641017  RH  056%=      5-min Rain = 0
KDC1 190615Z 35005KT 06/M02 A3005 RMK A01 T00631017  RH  057%=      5-min Rain = 0
KDC1 190616Z 34005KT 06/M02 A3005 RMK A01 T00611018  RH  057%=      5-min Rain = 0
KDC1 190617Z 34004KT 06/M02 A3005 RMK A01 T00561019  RH  058%=      5-min Rain = 0
KDC1 190618Z 33004KT 05/M02 A3005 RMK A01 T00531019  RH  060%=      5-min Rain = 0
KDC1 190619Z 33005KT 05/M02 A3005 RMK A01 T00501018  RH  061%=      5-min Rain = 0
KDC1 190620Z 32004KT 05/M02 A3005 RMK A01 T00481019  RH  062%=      5-min Rain = 0
KDC1 190621Z 31005KT 05/M02 A3005 RMK A01 T00451019  RH  064%=      5-min Rain = 0
KDC1 190622Z 32005KT 04/M02 A3005 RMK A01 T00441016  RH  065%=      5-min Rain = 0
KDC1 190623Z 32005KT 04/M02 A3005 RMK A01 T00441015  RH  065%=      5-min Rain = 0
KDC1 190624Z 31005KT 04/M02 A3005 RMK A01 T00441015  RH  065%=      5-min Rain = 0
KDC1 190625Z 31005KT 04/M02 A3005 RMK A01 T00441015  RH  066%=      5-min Rain = 0
KDC1 190626Z 30005KT 04/M02 A3005 RMK A01 T00431015  RH  066%=      5-min Rain = 0
KDC1 190627Z 30005KT 04/M01 A3005 RMK A01 T00431014  RH  066%=      5-min Rain = 0
KDC1 190628Z 31005KT 04/M01 A3005 RMK A01 T00431013  RH  067%=      5-min Rain = 0
KDC1 190629Z 31006KT 04/M01 A3005 RMK A01 T00441013  RH  067%=      5-min Rain = 0
KDC1 190630Z 30006KT 04/M01 A3005 RMK A01 T00431014  RH  067%=      5-min Rain = 0
KDC1 190631Z 30006KT 04/M02 A3005 RMK A01 T00411015  RH  067%=      5-min Rain = 0
KDC1 190632Z 30006KT 04/M02 A3005 RMK A01 T00401015  RH  067%=      5-min Rain = 0
KDC1 190633Z 29006KT 04/M01 A3005 RMK A01 T00401014  RH  068%=      5-min Rain = 0
KDC1 190634Z 29006KT 04/M02 A3005 RMK A01 T00391015  RH  068%=      5-min Rain = 0
KDC1 190635Z 30006KT 04/M02 A3005 RMK A01 T00381016  RH  068%=      5-min Rain = 0
KDC1 190636Z 30006KT 04/M02 A3005 RMK A01 T00361017  RH  068%=      5-min Rain = 0
KDC1 190637Z 29006KT 03/M02 A3005 RMK A01 T00341018  RH  069%=      5-min Rain = 0
KDC1 190638Z 30006KT 03/M02 A3005 RMK A01 T00331018  RH  069%=      5-min Rain = 0
KDC1 190639Z 30006KT 03/M02 A3005 RMK A01 T00331018  RH  069%=      5-min Rain = 0
KDC1 190640Z 29006KT 03/M02 A3005 RMK A01 T00321019  RH  069%=      5-min Rain = 0
KDC1 190641Z 29006KT 03/M02 A3005 RMK A01 T00321019  RH  069%=      5-min Rain = 0
KDC1 190642Z 30006KT 03/M02 A3005 RMK A01 T00321019  RH  069%=      5-min Rain = 0
KDC1 190643Z 30006KT 03/M02 A3005 RMK A01 T00321019  RH  070%=      5-min Rain = 0
KDC1 190644Z 30005KT 03/M02 A3005 RMK A01 T00321019  RH  070%=      5-min Rain = 0
KDC1 190645Z 30005KT 03/M02 A3005 RMK A01 T00321018  RH  070%=      5-min Rain = 0
KDC1 190646Z 30006KT 03/M02 A3005 RMK A01 T00321018  RH  070%=      5-min Rain = 0
KDC1 190647Z 30006KT 03/M02 A3005 RMK A01 T00321017  RH  070%=      5-min Rain = 0
KDC1 190648Z 30006KT 03/M02 A3005 RMK A01 T00321016  RH  071%=      5-min Rain = 0
KDC1 190649Z 30005KT 03/M02 A3005 RMK A01 T00311016  RH  071%=      5-min Rain = 0
KDC1 190650Z 30005KT 03/M02 A3005 RMK A01 T00311015  RH  072%=      5-min Rain = 0
KDC1 190651Z 30005KT 03/M02 A3005 RMK A01 T00301015  RH  072%=      5-min Rain = 0
KDC1 190652Z 30005KT 03/M02 A3005 RMK A01 T00301015  RH  072%=      5-min Rain = 0
KDC1 190653Z 30005KT 03/M02 A3005 RMK A01 T00291016  RH  072%=      5-min Rain = 0
KDC1 190654Z 30005KT 03/M02 A3005 RMK A01 T00291017  RH  072%=      5-min Rain = 0
KDC1 190655Z 30005KT 03/M02 A3005 RMK A01 T00281018  RH  072%=      5-min Rain = 0
KDC1 190656Z 29006KT 03/M02 A3005 RMK A01 T00271018  RH  072%=      5-min Rain = 0
KDC1 190657Z 29006KT 03/M02 A3005 RMK A01 T00261018  RH  073%=      5-min Rain = 0
KDC1 190658Z 30006KT 03/M02 A3005 RMK A01 T00261018  RH  073%=      5-min Rain = 0
KDC1 190659Z 29006KT 03/M02 A3005 RMK A01 T00261018  RH  073%=      5-min Rain = 0
KDC1 190700Z 29007KT 03/M02 A3005 RMK A01 T00261017  RH  073%=      5-min Rain = 0
KDC1 190701Z 29007KT 03/M02 A3005 RMK A01 T00261017  RH  073%=      5-min Rain = 0
KDC1 190702Z 30007KT 03/M02 A3005 RMK A01 T00261017  RH  073%=      5-min Rain = 0
KDC1 190703Z 29008KT 03/M02 A3005 RMK A01 T00271016  RH  073%=      5-min Rain = 0
KDC1 190704Z 29008KT 03/M02 A3005 RMK A01 T00291015  RH  073%=      5-min Rain = 0
KDC1 190705Z 29007KT 03/M02 A3005 RMK A01 T00301015  RH  072%=      5-min Rain = 0
KDC1 190706Z 29007KT 03/M02 A3005 RMK A01 T00311015  RH  072%=      5-min Rain = 0
KDC1 190707Z 29007KT 03/M01 A3005 RMK A01 T00321014  RH  072%=      5-min Rain = 0
KDC1 190708Z 29006KT 03/M01 A3005 RMK A01 T00331014  RH  071%=      5-min Rain = 0
KDC1 190709Z 28006KT 04/M01 A3005 RMK A01 T00351014  RH  070%=      5-min Rain = 0
KDC1 190710Z 28006KT 04/M01 A3005 RMK A01 T00371014  RH  069%=      5-min Rain = 0
KDC1 190711Z 27006KT 04/M01 A3005 RMK A01 T00391014  RH  068%=      5-min Rain = 0
KDC1 190712Z 27006KT 04/M02 A3005 RMK A01 T00411015  RH  067%=      5-min Rain = 0
KDC1 190713Z 27005KT 04/M02 A3005 RMK A01 T00421016  RH  066%=      5-min Rain = 0
KDC1 190714Z 27005KT 04/M02 A3005 RMK A01 T00431016  RH  066%=      5-min Rain = 0
KDC1 190715Z 27005KT 04/M02 A3005 RMK A01 T00431016  RH  066%=      5-min Rain = 0
KDC1 190716Z 28006KT 04/M02 A3005 RMK A01 T00431017  RH  065%=      5-min Rain = 0
KDC1 190717Z 28006KT 04/M02 A3005 RMK A01 T00431018  RH  065%=      5-min Rain = 0
KDC1 190718Z 27006KT 04/M02 A3005 RMK A01 T00441019  RH  064%=      5-min Rain = 0
KDC1 190719Z 27005KT 04/M02 A3005 RMK A01 T00441020  RH  063%=      5-min Rain = 0
KDC1 190720Z 26005KT 04/M02 A3005 RMK A01 T00441020  RH  063%=      5-min Rain = 0
KDC1 190721Z 27006KT 04/M02 A3005 RMK A01 T00431020  RH  063%=      5-min Rain = 0
KDC1 190722Z 27006KT 04/M02 A3005 RMK A01 T00431021  RH  063%=      5-min Rain = 0
KDC1 190723Z 26005KT 04/M02 A3005 RMK A01 T00421021  RH  063%=      5-min Rain = 0
KDC1 190724Z 26005KT 04/M02 A3005 RMK A01 T00411022  RH  063%=      5-min Rain = 0
KDC1 190725Z 26006KT 04/M02 A3005 RMK A01 T00411022  RH  063%=      5-min Rain = 0
KDC1 190726Z 26006KT 04/M02 A3005 RMK A01 T00401023  RH  063%=      5-min Rain = 0
KDC1 190727Z 26006KT 04/M02 A3005 RMK A01 T00401024  RH  063%=      5-min Rain = 0
KDC1 190728Z 26005KT 04/M02 A3005 RMK A01 T00401024  RH  063%=      5-min Rain = 0
KDC1 190729Z 26005KT 04/M02 A3005 RMK A01 T00411024  RH  063%=      5-min Rain = 0
KDC1 190730Z 26005KT 04/M03 A3005 RMK A01 T00401026  RH  062%=      5-min Rain = 0
KDC1 190731Z 26005KT 04/M03 A3004 RMK A01 T00401026  RH  062%=      5-min Rain = 0
KDC1 190732Z 27005KT 04/M03 A3004 RMK A01 T00401026  RH  062%=      5-min Rain = 0
KDC1 190733Z 27005KT 04/M03 A3004 RMK A01 T00401026  RH  062%=      5-min Rain = 0
KDC1 190734Z 27005KT 04/M03 A3004 RMK A01 T00391026  RH  062%=      5-min Rain = 0
KDC1 190735Z 27005KT 04/M03 A3004 RMK A01 T00401027  RH  062%=      5-min Rain = 0
KDC1 190736Z 27005KT 04/M03 A3004 RMK A01 T00421027  RH  061%=      5-min Rain = 0
KDC1 190737Z 26005KT 04/M03 A3004 RMK A01 T00421027  RH  061%=      5-min Rain = 0
KDC1 190738Z 26005KT 04/M03 A3004 RMK A01 T00431028  RH  060%=      5-min Rain = 0
KDC1 190739Z 25005KT 04/M03 A3004 RMK A01 T00431027  RH  060%=      5-min Rain = 0
KDC1 190740Z 25005KT 04/M03 A3004 RMK A01 T00421027  RH  061%=      5-min Rain = 0
KDC1 190741Z 25005KT 04/M03 A3004 RMK A01 T00421028  RH  061%=      5-min Rain = 0
KDC1 190742Z 25004KT 04/M03 A3004 RMK A01 T00411028  RH  061%=      5-min Rain = 0
KDC1 190743Z 25004KT 04/M03 A3005 RMK A01 T00401027  RH  061%=      5-min Rain = 0
KDC1 190744Z 25005KT 04/M03 A3005 RMK A01 T00391027  RH  062%=      5-min Rain = 0
KDC1 190745Z 25005KT 04/M03 A3005 RMK A01 T00371026  RH  063%=      5-min Rain = 0
KDC1 190746Z 25005KT 04/M03 A3005 RMK A01 T00361026  RH  064%=      5-min Rain = 0
KDC1 190747Z 25005KT 04/M03 A3005 RMK A01 T00351025  RH  065%=      5-min Rain = 0
KDC1 190748Z 25004KT 03/M03 A3005 RMK A01 T00341025  RH  065%=      5-min Rain = 0
KDC1 190749Z 25004KT 03/M03 A3005 RMK A01 T00341026  RH  065%=      5-min Rain = 0
KDC1 190750Z 24004KT 03/M03 A3005 RMK A01 T00341027  RH  064%=      5-min Rain = 0
KDC1 190751Z 25005KT 04/M03 A3005 RMK A01 T00351027  RH  064%=      5-min Rain = 0
KDC1 190752Z 25005KT 04/M03 A3004 RMK A01 T00361026  RH  064%=      5-min Rain = 0
KDC1 190753Z 26005KT 04/M03 A3004 RMK A01 T00361026  RH  064%=      5-min Rain = 0
KDC1 190754Z 26005KT 04/M03 A3004 RMK A01 T00351026  RH  064%=      5-min Rain = 0
KDC1 190755Z 27005KT 03/M03 A3004 RMK A01 T00341026  RH  065%=      5-min Rain = 0
KDC1 190756Z 27005KT 03/M03 A3004 RMK A01 T00331026  RH  065%=      5-min Rain = 0
KDC1 190757Z 28005KT 03/M03 A3004 RMK A01 T00331026  RH  065%=      5-min Rain = 0
KDC1 190758Z 28005KT 03/M03 A3004 RMK A01 T00341027  RH  065%=      5-min Rain = 0
KDC1 190759Z 27005KT 04/M03 A3004 RMK A01 T00351027  RH  064%=      5-min Rain = 0
KDC1 190800Z 28005KT 04/M03 A3004 RMK A01 T00371027  RH  063%=      5-min Rain = 0
KDC1 190801Z 28005KT 04/M03 A3004 RMK A01 T00391027  RH  062%=      5-min Rain = 0
KDC1 190802Z 28005KT 04/M03 A3004 RMK A01 T00401027  RH  062%=      5-min Rain = 0
KDC1 190803Z 28004KT 04/M03 A3004 RMK A01 T00401027  RH  061%=      5-min Rain = 0
KDC1 190804Z 28004KT 04/M03 A3004 RMK A01 T00421027  RH  061%=      5-min Rain = 0
KDC1 190805Z 28005KT 04/M03 A3004 RMK A01 T00421027  RH  061%=      5-min Rain = 0
KDC1 190806Z 28005KT 04/M03 A3004 RMK A01 T00421026  RH  061%=      5-min Rain = 0
KDC1 190807Z 28006KT 04/M03 A3004 RMK A01 T00421026  RH  061%=      5-min Rain = 0
KDC1 190808Z 28006KT 04/M03 A3004 RMK A01 T00411026  RH  062%=      5-min Rain = 0
KDC1 190809Z 28006KT 04/M03 A3004 RMK A01 T00411025  RH  062%=      5-min Rain = 0
KDC1 190810Z 28006KT 04/M03 A3004 RMK A01 T00411025  RH  062%=      5-min Rain = 0
KDC1 190811Z 28006KT 04/M03 A3004 RMK A01 T00411025  RH  062%=      5-min Rain = 0
KDC1 190812Z 28006KT 04/M03 A3004 RMK A01 T00411025  RH  062%=      5-min Rain = 0
KDC1 190813Z 28006KT 04/M02 A3004 RMK A01 T00411024  RH  063%=      5-min Rain = 0
KDC1 190814Z 29006KT 04/M02 A3004 RMK A01 T00401024  RH  063%=      5-min Rain = 0
KDC1 190815Z 29006KT 04/M02 A3004 RMK A01 T00381024  RH  064%=      5-min Rain = 0
KDC1 190816Z 29007KT 04/M03 A3004 RMK A01 T00361025  RH  065%=      5-min Rain = 0
KDC1 190817Z 29007KT 03/M03 A3004 RMK A01 T00341025  RH  065%=      5-min Rain = 0
KDC1 190818Z 29007KT 03/M03 A3004 RMK A01 T00321025  RH  066%=      5-min Rain = 0
KDC1 190819Z 29007KT 03/M03 A3004 RMK A01 T00321025  RH  066%=      5-min Rain = 0
KDC1 190820Z 28008KT 03/M02 A3004 RMK A01 T00331024  RH  066%=      5-min Rain = 0
KDC1 190821Z 28008KT 03/M02 A3004 RMK A01 T00341024  RH  066%=      5-min Rain = 0
KDC1 190822Z 28008KT 04/M02 A3004 RMK A01 T00361024  RH  065%=      5-min Rain = 0
KDC1 190823Z 28009KT 04/M02 A3004 RMK A01 T00381023  RH  064%=      5-min Rain = 0
KDC1 190824Z 28009KT 04/M02 A3004 RMK A01 T00411024  RH  063%=      5-min Rain = 0
KDC1 190825Z 28009KT 04/M02 A3004 RMK A01 T00421024  RH  062%=      5-min Rain = 0
KDC1 190826Z 28009KT 04/M02 A3004 RMK A01 T00431024  RH  062%=      5-min Rain = 0
KDC1 190827Z 29008KT 04/M02 A3004 RMK A01 T00441023  RH  062%=      5-min Rain = 0
KDC1 190828Z 29008KT 04/M02 A3004 RMK A01 T00441024  RH  061%=      5-min Rain = 0
KDC1 190829Z 28007KT 04/M02 A3004 RMK A01 T00441024  RH  061%=      5-min Rain = 0
KDC1 190830Z 28007KT 04/M02 A3004 RMK A01 T00441024  RH  061%=      5-min Rain = 0
KDC1 190831Z 29007KT 04/M02 A3004 RMK A01 T00441023  RH  062%=      5-min Rain = 0
KDC1 190832Z 29007KT 04/M02 A3004 RMK A01 T00441023  RH  062%=      5-min Rain = 0
KDC1 190833Z 29007KT 04/M02 A3004 RMK A01 T00431022  RH  062%=      5-min Rain = 0
KDC1 190834Z 29006KT 04/M02 A3004 RMK A01 T00431022  RH  062%=      5-min Rain = 0
KDC1 190835Z 28006KT 04/M02 A3004 RMK A01 T00421023  RH  063%=      5-min Rain = 0
KDC1 190836Z 29006KT 04/M02 A3004 RMK A01 T00421022  RH  063%=      5-min Rain = 0
KDC1 190837Z 29006KT 04/M02 A3004 RMK A01 T00421022  RH  063%=      5-min Rain = 0
KDC1 190838Z 29005KT 04/M02 A3004 RMK A01 T00421022  RH  063%=      5-min Rain = 0
KDC1 190839Z 29005KT 04/M02 A3004 RMK A01 T00411022  RH  063%=      5-min Rain = 0
KDC1 190840Z 29005KT 04/M02 A3004 RMK A01 T00411022  RH  064%=      5-min Rain = 0
KDC1 190841Z 29005KT 04/M02 A3004 RMK A01 T00401022  RH  064%=      5-min Rain = 0
KDC1 190842Z 28006KT 04/M02 A3004 RMK A01 T00401021  RH  064%=      5-min Rain = 0
KDC1 190843Z 28006KT 04/M02 A3004 RMK A01 T00391021  RH  065%=      5-min Rain = 0
KDC1 190844Z 28006KT 04/M02 A3004 RMK A01 T00381021  RH  065%=      5-min Rain = 0
KDC1 190845Z 28006KT 04/M02 A3004 RMK A01 T00381021  RH  065%=      5-min Rain = 0
KDC1 190846Z 28006KT 04/M02 A3004 RMK A01 T00381021  RH  065%=      5-min Rain = 0
KDC1 190847Z 28006KT 04/M02 A3004 RMK A01 T00381021  RH  065%=      5-min Rain = 0
KDC1 190848Z 28006KT 04/M02 A3003 RMK A01 T00381021  RH  065%=      5-min Rain = 0
KDC1 190849Z 29005KT 04/M02 A3003 RMK A01 T00381022  RH  065%=      5-min Rain = 0
KDC1 190850Z 29005KT 04/M02 A3003 RMK A01 T00371022  RH  065%=      5-min Rain = 0
KDC1 190851Z 30005KT 04/M02 A3003 RMK A01 T00371022  RH  065%=      5-min Rain = 0
KDC1 190852Z 30004KT 04/M02 A3003 RMK A01 T00371022  RH  065%=      5-min Rain = 0
KDC1 190853Z 31004KT 04/M02 A3003 RMK A01 T00381022  RH  065%=      5-min Rain = 0
KDC1 190854Z 32003KT 04/M02 A3003 RMK A01 T00381022  RH  065%=      5-min Rain = 0
KDC1 190855Z 33003KT 04/M02 A3003 RMK A01 T00371021  RH  066%=      5-min Rain = 0
KDC1 190856Z 33003KT 04/M02 A3003 RMK A01 T00361021  RH  066%=      5-min Rain = 0
KDC1 190857Z 32003KT 04/M02 A3003 RMK A01 T00361021  RH  066%=      5-min Rain = 0
KDC1 190858Z 33003KT 04/M02 A3003 RMK A01 T00351022  RH  066%=      5-min Rain = 0
KDC1 190859Z 32002KT 04/M02 A3003 RMK A01 T00351022  RH  066%=      5-min Rain = 0
KDC1 190900Z 31002KT 03/M02 A3003 RMK A01 T00341022  RH  067%=      5-min Rain = 0
KDC1 190901Z 30003KT 03/M02 A3003 RMK A01 T00341022  RH  067%=      5-min Rain = 0
KDC1 190902Z 30004KT 03/M02 A3003 RMK A01 T00341021  RH  067%=      5-min Rain = 0
KDC1 190903Z 29004KT 03/M02 A3003 RMK A01 T00331022  RH  067%=      5-min Rain = 0
KDC1 190904Z 30004KT 03/M02 A3003 RMK A01 T00311023  RH  068%=      5-min Rain = 0
KDC1 190905Z 30003KT 03/M02 A3003 RMK A01 T00301022  RH  069%=      5-min Rain = 0
KDC1 190906Z 31003KT 03/M02 A3003 RMK A01 T00301021  RH  069%=      5-min Rain = 0
KDC1 190907Z 31003KT 03/M02 A3003 RMK A01 T00301021  RH  069%=      5-min Rain = 0
KDC1 190908Z 33003KT 03/M02 A3003 RMK A01 T00291020  RH  070%=      5-min Rain = 0
KDC1 190909Z 34003KT 03/M02 A3003 RMK A01 T00291020  RH  070%=      5-min Rain = 0
KDC1 190910Z 34004KT 03/M02 A3003 RMK A01 T00291019  RH  071%=      5-min Rain = 0
KDC1 190911Z 35004KT 03/M02 A3003 RMK A01 T00291019  RH  071%=      5-min Rain = 0
KDC1 190912Z 34004KT 03/M02 A3003 RMK A01 T00301019  RH  070%=      5-min Rain = 0
KDC1 190913Z 34004KT 03/M02 A3003 RMK A01 T00301020  RH  070%=      5-min Rain = 0
KDC1 190914Z 33004KT 03/M02 A3003 RMK A01 T00311019  RH  070%=      5-min Rain = 0
KDC1 190915Z 33004KT 03/M02 A3003 RMK A01 T00331018  RH  069%=      5-min Rain = 0
KDC1 190916Z 33003KT 03/M02 A3003 RMK A01 T00331019  RH  069%=      5-min Rain = 0
KDC1 190917Z 33004KT 03/M02 A3003 RMK A01 T00341020  RH  068%=      5-min Rain = 0
KDC1 190918Z 32004KT 04/M02 A3003 RMK A01 T00361021  RH  066%=      5-min Rain = 0
KDC1 190919Z 32004KT 04/M02 A3003 RMK A01 T00371022  RH  065%=      5-min Rain = 0
KDC1 190920Z 32004KT 04/M02 A3003 RMK A01 T00371022  RH  065%=      5-min Rain = 0
KDC1 190921Z 32004KT 04/M02 A3003 RMK A01 T00371022  RH  065%=      5-min Rain = 0
KDC1 190922Z 32004KT 04/M02 A3003 RMK A01 T00371023  RH  065%=      5-min Rain = 0
KDC1 190923Z 32004KT 04/M02 A3003 RMK A01 T00381023  RH  064%=      5-min Rain = 0
KDC1 190924Z 31004KT 04/M02 A3003 RMK A01 T00401023  RH  064%=      5-min Rain = 0
KDC1 190925Z 32004KT 04/M02 A3003 RMK A01 T00401024  RH  063%=      5-min Rain = 0
KDC1 190926Z 32004KT 04/M02 A3003 RMK A01 T00401024  RH  063%=      5-min Rain = 0
KDC1 190927Z 33003KT 04/M02 A3003 RMK A01 T00411023  RH  063%=      5-min Rain = 0
KDC1 190928Z 32003KT 04/M02 A3003 RMK A01 T00411023  RH  063%=      5-min Rain = 0
KDC1 190929Z 32003KT 04/M02 A3003 RMK A01 T00411024  RH  063%=      5-min Rain = 0
KDC1 190930Z 31003KT 04/M02 A3003 RMK A01 T00421024  RH  062%=      5-min Rain = 0
KDC1 190931Z 30004KT 04/M02 A3003 RMK A01 T00431024  RH  062%=      5-min Rain = 0
KDC1 190932Z 30004KT 04/M02 A3003 RMK A01 T00441023  RH  061%=      5-min Rain = 0
KDC1 190933Z 30004KT 05/M02 A3003 RMK A01 T00451024  RH  061%=      5-min Rain = 0
KDC1 190934Z 30004KT 05/M02 A3003 RMK A01 T00451024  RH  061%=      5-min Rain = 0
KDC1 190935Z 30004KT 04/M03 A3003 RMK A01 T00421025  RH  062%=      5-min Rain = 0
KDC1 190936Z 31004KT 04/M02 A3003 RMK A01 T00391024  RH  063%=      5-min Rain = 0
KDC1 190937Z 31004KT 04/M02 A3003 RMK A01 T00391024  RH  064%=      5-min Rain = 0
KDC1 190938Z 30003KT 04/M02 A3003 RMK A01 T00381024  RH  064%=      5-min Rain = 0
KDC1 190939Z 28004KT 04/M02 A3003 RMK A01 T00391023  RH  064%=      5-min Rain = 0
KDC1 190940Z 26004KT 04/M02 A3003 RMK A01 T00421023  RH  063%=      5-min Rain = 0
KDC1 190941Z 26005KT 04/M02 A3003 RMK A01 T00431023  RH  062%=      5-min Rain = 0
KDC1 190942Z 26004KT 04/M02 A3003 RMK A01 T00441023  RH  062%=      5-min Rain = 0
KDC1 190943Z 27005KT 04/M02 A3003 RMK A01 T00441024  RH  061%=      5-min Rain = 0
KDC1 190944Z 27005KT 04/M02 A3003 RMK A01 T00441024  RH  061%=      5-min Rain = 0
KDC1 190945Z 28005KT 04/M03 A3003 RMK A01 T00431025  RH  061%=      5-min Rain = 0
KDC1 190946Z 28005KT 04/M03 A3003 RMK A01 T00401027  RH  061%=      5-min Rain = 0
KDC1 190947Z 29004KT 04/M03 A3003 RMK A01 T00371028  RH  062%=      5-min Rain = 0
KDC1 190948Z 29005KT 04/M03 A3003 RMK A01 T00351029  RH  063%=      5-min Rain = 0
KDC1 190949Z 28005KT 03/M03 A3003 RMK A01 T00331029  RH  064%=      5-min Rain = 0
KDC1 190950Z 28005KT 03/M03 A3003 RMK A01 T00311028  RH  065%=      5-min Rain = 0
KDC1 190951Z 29005KT 03/M03 A3003 RMK A01 T00301028  RH  066%=      5-min Rain = 0
KDC1 190952Z 29006KT 03/M03 A3003 RMK A01 T00301027  RH  066%=      5-min Rain = 0
KDC1 190953Z 30006KT 03/M03 A3003 RMK A01 T00291027  RH  067%=      5-min Rain = 0
KDC1 190954Z 30006KT 03/M03 A3003 RMK A01 T00261029  RH  067%=      5-min Rain = 0
KDC1 190955Z 30006KT 02/M03 A3003 RMK A01 T00241029  RH  068%=      5-min Rain = 0
KDC1 190956Z 31007KT 02/M03 A3003 RMK A01 T00241029  RH  068%=      5-min Rain = 0
KDC1 190957Z 31006KT 03/M03 A3003 RMK A01 T00251029  RH  068%=      5-min Rain = 0
KDC1 190958Z 31006KT 03/M03 A3003 RMK A01 T00251029  RH  068%=      5-min Rain = 0
KDC1 190959Z 30006KT 03/M03 A3003 RMK A01 T00251029  RH  068%=      5-min Rain = 0
KDC1 191000Z 30005KT 03/M03 A3003 RMK A01 T00261028  RH  067%=      5-min Rain = 0
KDC1 191001Z 30005KT 03/M03 A3003 RMK A01 T00271027  RH  067%=      5-min Rain = 0
KDC1 191002Z 30005KT 03/M03 A3003 RMK A01 T00291027  RH  067%=      5-min Rain = 0
KDC1 191003Z 29004KT 03/M03 A3003 RMK A01 T00321027  RH  066%=      5-min Rain = 0
KDC1 191004Z 29004KT 03/M03 A3003 RMK A01 T00341026  RH  065%=      5-min Rain = 0
KDC1 191005Z 28004KT 04/M03 A3003 RMK A01 T00351026  RH  064%=      5-min Rain = 0
KDC1 191006Z 28004KT 04/M03 A3003 RMK A01 T00371025  RH  064%=      5-min Rain = 0
KDC1 191007Z 28005KT 04/M02 A3003 RMK A01 T00381024  RH  064%=      5-min Rain = 0
KDC1 191008Z 28004KT 04/M02 A3003 RMK A01 T00401023  RH  063%=      5-min Rain = 0
KDC1 191009Z 28004KT 04/M02 A3003 RMK A01 T00431024  RH  062%=      5-min Rain = 0
KDC1 191010Z 28004KT 04/M02 A3003 RMK A01 T00441024  RH  061%=      5-min Rain = 0
KDC1 191011Z 28003KT 05/M03 A3003 RMK A01 T00451025  RH  061%=      5-min Rain = 0
KDC1 191012Z 28003KT 05/M03 A3003 RMK A01 T00461025  RH  060%=      5-min Rain = 0
KDC1 191013Z 28004KT 05/M03 A3003 RMK A01 T00471026  RH  060%=      5-min Rain = 0
KDC1 191014Z 28004KT 05/M03 A3003 RMK A01 T00471026  RH  059%=      5-min Rain = 0
KDC1 191015Z 28004KT 05/M03 A3003 RMK A01 T00471026  RH  059%=      5-min Rain = 0
KDC1 191016Z 28004KT 05/M03 A3003 RMK A01 T00461026  RH  059%=      5-min Rain = 0
KDC1 191017Z 28003KT 05/M03 A3003 RMK A01 T00461027  RH  059%=      5-min Rain = 0
KDC1 191018Z 27004KT 05/M03 A3003 RMK A01 T00461027  RH  059%=      5-min Rain = 0
KDC1 191019Z 27005KT 05/M03 A3003 RMK A01 T00461027  RH  059%=      5-min Rain = 0
KDC1 191020Z 27005KT 05/M03 A3003 RMK A01 T00461026  RH  060%=      5-min Rain = 0
KDC1 191021Z 27004KT 04/M03 A3003 RMK A01 T00441027  RH  060%=      5-min Rain = 0
KDC1 191022Z 27004KT 04/M03 A3003 RMK A01 T00431026  RH  061%=      5-min Rain = 0
KDC1 191023Z 28004KT 04/M03 A3003 RMK A01 T00431025  RH  061%=      5-min Rain = 0
KDC1 191024Z 29005KT 04/M03 A3003 RMK A01 T00391026  RH  062%=      5-min Rain = 0
KDC1 191025Z 29006KT 04/M03 A3003 RMK A01 T00371027  RH  063%=      5-min Rain = 0
KDC1 191026Z 29006KT 04/M03 A3003 RMK A01 T00351028  RH  063%=      5-min Rain = 0
KDC1 191027Z 29006KT 03/M03 A3003 RMK A01 T00341028  RH  064%=      5-min Rain = 0
KDC1 191028Z 29007KT 03/M03 A3003 RMK A01 T00331029  RH  064%=      5-min Rain = 0
KDC1 191029Z 29007KT 03/M03 A3003 RMK A01 T00321029  RH  064%=      5-min Rain = 0
KDC1 191030Z 29007KT 03/M03 A3003 RMK A01 T00311029  RH  065%=      5-min Rain = 0
KDC1 191031Z 30006KT 03/M03 A3003 RMK A01 T00311028  RH  065%=      5-min Rain = 0
KDC1 191032Z 30005KT 03/M03 A3003 RMK A01 T00341027  RH  064%=      5-min Rain = 0
KDC1 191033Z 30005KT 04/M03 A3003 RMK A01 T00381027  RH  063%=      5-min Rain = 0
KDC1 191034Z 30006KT 04/M03 A3003 RMK A01 T00401027  RH  062%=      5-min Rain = 0
KDC1 191035Z 30006KT 04/M03 A3003 RMK A01 T00411027  RH  061%=      5-min Rain = 0
KDC1 191036Z 30006KT 04/M03 A3003 RMK A01 T00421027  RH  061%=      5-min Rain = 0
KDC1 191037Z 30006KT 04/M03 A3003 RMK A01 T00421027  RH  061%=      5-min Rain = 0
KDC1 191038Z 30006KT 04/M03 A3003 RMK A01 T00421027  RH  061%=      5-min Rain = 0
KDC1 191039Z 30006KT 04/M03 A3003 RMK A01 T00411027  RH  061%=      5-min Rain = 0
KDC1 191040Z 31005KT 04/M03 A3003 RMK A01 T00411026  RH  062%=      5-min Rain = 0
KDC1 191041Z 32004KT 04/M03 A3002 RMK A01 T00411026  RH  062%=      5-min Rain = 0
KDC1 191042Z 32004KT 04/M03 A3002 RMK A01 T00411026  RH  062%=      5-min Rain = 0
KDC1 191043Z 32004KT 04/M03 A3002 RMK A01 T00401026  RH  062%=      5-min Rain = 0
KDC1 191044Z 33004KT 04/M03 A3002 RMK A01 T00401027  RH  062%=      5-min Rain = 0
KDC1 191045Z 32004KT 04/M03 A3002 RMK A01 T00391027  RH  062%=      5-min Rain = 0
KDC1 191046Z 32003KT 04/M03 A3002 RMK A01 T00381027  RH  062%=      5-min Rain = 0
KDC1 191047Z 31003KT 04/M03 A3002 RMK A01 T00371027  RH  063%=      5-min Rain = 0
KDC1 191048Z 30002KT 04/M03 A3003 RMK A01 T00361027  RH  064%=      5-min Rain = 0
KDC1 191049Z 30002KT 04/M03 A3003 RMK A01 T00361026  RH  064%=      5-min Rain = 0
KDC1 191050Z 30002KT 04/M03 A3003 RMK A01 T00351027  RH  064%=      5-min Rain = 0
KDC1 191051Z 30002KT 03/M03 A3003 RMK A01 T00341026  RH  065%=      5-min Rain = 0
KDC1 191052Z 31001KT 03/M03 A3003 RMK A01 T00341026  RH  065%=      5-min Rain = 0
KDC1 191053Z 31001KT 03/M03 A3003 RMK A01 T00341025  RH  065%=      5-min Rain = 0
KDC1 191054Z 32001KT 03/M03 A3003 RMK A01 T00341025  RH  065%=      5-min Rain = 0
KDC1 191055Z 32001KT 03/M03 A3003 RMK A01 T00331025  RH  066%=      5-min Rain = 0
KDC1 191056Z 31002KT 03/M03 A3003 RMK A01 T00331025  RH  066%=      5-min Rain = 0
KDC1 191057Z 32002KT 03/M03 A3003 RMK A01 T00321025  RH  066%=      5-min Rain = 0
KDC1 191058Z 32002KT 03/M02 A3002 RMK A01 T00311024  RH  067%=      5-min Rain = 0
KDC1 191059Z 32003KT 03/M02 A3002 RMK A01 T00311023  RH  068%=      5-min Rain = 0
KDC1 191100Z 32002KT 03/M02 A3002 RMK A01 T00301022  RH  069%=      5-min Rain = 0
KDC1 191101Z 32002KT 03/M02 A3002 RMK A01 T00291022  RH  069%=      5-min Rain = 0
KDC1 191102Z 34002KT 03/M02 A3002 RMK A01 T00291021  RH  070%=      5-min Rain = 0
KDC1 191103Z 35002KT 03/M02 A3002 RMK A01 T00291021  RH  070%=      5-min Rain = 0
KDC1 191104Z 34002KT 03/M02 A3002 RMK A01 T00291020  RH  070%=      5-min Rain = 0
KDC1 191105Z 34002KT 03/M02 A3002 RMK A01 T00291020  RH  070%=      5-min Rain = 0
KDC1 191106Z 34001KT 03/M02 A3002 RMK A01 T00291019  RH  071%=      5-min Rain = 0
KDC1 191107Z 34001KT 03/M02 A3002 RMK A01 T00291019  RH  071%=      5-min Rain = 0
KDC1 191108Z 33001KT 03/M02 A3002 RMK A01 T00281019  RH  071%=      5-min Rain = 0
KDC1 191109Z 32001KT 03/M02 A3002 RMK A01 T00281019  RH  071%=      5-min Rain = 0
KDC1 191110Z 25000KT 03/M02 A3002 RMK A01 T00291019  RH  071%=      5-min Rain = 0
KDC1 191111Z 20001KT 03/M02 A3002 RMK A01 T00291019  RH  071%=      5-min Rain = 0
KDC1 191112Z 18002KT 03/M02 A3002 RMK A01 T00301019  RH  070%=      5-min Rain = 0
KDC1 191113Z 18002KT 03/M02 A3002 RMK A01 T00311019  RH  070%=      5-min Rain = 0
KDC1 191114Z 16002KT 03/M02 A3002 RMK A01 T00311017  RH  071%=      5-min Rain = 0
KDC1 191115Z 17003KT 03/M02 A3003 RMK A01 T00301019  RH  070%=      5-min Rain = 0
KDC1 191116Z 17003KT 03/M02 A3003 RMK A01 T00311020  RH  069%=      5-min Rain = 0
KDC1 191117Z 18003KT 03/M02 A3003 RMK A01 T00321021  RH  068%=      5-min Rain = 0
KDC1 191118Z 19003KT 03/M02 A3003 RMK A01 T00321021  RH  068%=      5-min Rain = 0
KDC1 191119Z 19002KT 03/M02 A3003 RMK A01 T00321021  RH  068%=      5-min Rain = 0
KDC1 191120Z 21001KT 03/M02 A3003 RMK A01 T00321021  RH  068%=      5-min Rain = 0
KDC1 191121Z 22001KT 03/M02 A3003 RMK A01 T00331021  RH  068%=      5-min Rain = 0
KDC1 191122Z 24001KT 03/M02 A3003 RMK A01 T00331020  RH  068%=      5-min Rain = 0
KDC1 191123Z 25001KT 03/M02 A3003 RMK A01 T00321020  RH  068%=      5-min Rain = 0
KDC1 191124Z 23001KT 03/M02 A3003 RMK A01 T00321021  RH  068%=      5-min Rain = 0
KDC1 191125Z 21001KT 03/M02 A3003 RMK A01 T00321020  RH  068%=      5-min Rain = 0
KDC1 191126Z 21002KT 03/M02 A3003 RMK A01 T00321021  RH  068%=      5-min Rain = 0
KDC1 191127Z 22002KT 03/M02 A3003 RMK A01 T00321020  RH  068%=      5-min Rain = 0
KDC1 191128Z 22002KT 03/M02 A3003 RMK A01 T00321020  RH  069%=      5-min Rain = 0
KDC1 191129Z 22003KT 03/M02 A3003 RMK A01 T00321020  RH  069%=      5-min Rain = 0
KDC1 191130Z 22003KT 03/M02 A3003 RMK A01 T00321020  RH  069%=      5-min Rain = 0
KDC1 191131Z 23002KT 03/M02 A3003 RMK A01 T00331020  RH  068%=      5-min Rain = 0
KDC1 191132Z 22001KT 03/M02 A3003 RMK A01 T00331020  RH  068%=      5-min Rain = 0
KDC1 191133Z 22000KT 03/M02 A3003 RMK A01 T00331020  RH  068%=      5-min Rain = 0
KDC1 191134Z 00000KT 03/M02 A3003 RMK A01 T00331020  RH  068%=      5-min Rain = 0
KDC1 191135Z 00000KT 03/M02 A3003 RMK A01 T00321019  RH  069%=      5-min Rain = 0
KDC1 191136Z 00000KT 03/M02 A3003 RMK A01 T00321019  RH  069%=      5-min Rain = 0
KDC1 191137Z 00000KT 03/M02 A3003 RMK A01 T00321020  RH  069%=      5-min Rain = 0
KDC1 191138Z 23001KT 03/M02 A3003 RMK A01 T00321019  RH  069%=      5-min Rain = 0
KDC1 191139Z 24001KT 03/M02 A3003 RMK A01 T00321019  RH  069%=      5-min Rain = 0
KDC1 191140Z 24001KT 03/M02 A3003 RMK A01 T00321019  RH  069%=      5-min Rain = 0
KDC1 191141Z 23002KT 03/M02 A3003 RMK A01 T00321018  RH  069%=      5-min Rain = 0
KDC1 191142Z 21001KT 03/M02 A3003 RMK A01 T00321018  RH  070%=      5-min Rain = 0
KDC1 191143Z 22002KT 03/M02 A3003 RMK A01 T00311019  RH  070%=      5-min Rain = 0
KDC1 191144Z 22002KT 03/M02 A3003 RMK A01 T00301019  RH  070%=      5-min Rain = 0
KDC1 191145Z 23002KT 03/M02 A3003 RMK A01 T00301019  RH  070%=      5-min Rain = 0
KDC1 191146Z 23002KT 03/M02 A3003 RMK A01 T00301018  RH  071%=      5-min Rain = 0
KDC1 191147Z 25002KT 03/M02 A3003 RMK A01 T00301018  RH  071%=      5-min Rain = 0
KDC1 191148Z 26003KT 03/M02 A3003 RMK A01 T00291017  RH  072%=      5-min Rain = 0
KDC1 191149Z 27003KT 03/M02 A3003 RMK A01 T00291016  RH  073%=      5-min Rain = 0
KDC1 191150Z 29002KT 03/M02 A3003 RMK A01 T00281016  RH  073%=      5-min Rain = 0
KDC1 191151Z 28002KT 03/M02 A3003 RMK A01 T00271016  RH  073%=      5-min Rain = 0
KDC1 191152Z 28002KT 03/M02 A3003 RMK A01 T00261016  RH  074%=      5-min Rain = 0
KDC1 191153Z 28002KT 03/M02 A3003 RMK A01 T00251017  RH  074%=      5-min Rain = 0
KDC1 191154Z 28001KT 02/M02 A3003 RMK A01 T00241018  RH  074%=      5-min Rain = 0
KDC1 191155Z 28001KT 02/M02 A3003 RMK A01 T00231019  RH  074%=      5-min Rain = 0
KDC1 191156Z 28001KT 02/M02 A3003 RMK A01 T00231019  RH  074%=      5-min Rain = 0
KDC1 191157Z 28001KT 02/M02 A3003 RMK A01 T00221019  RH  074%=      5-min Rain = 0
KDC1 191158Z 28000KT 02/M02 A3003 RMK A01 T00221019  RH  074%=      5-min Rain = 0
KDC1 191159Z 00000KT 02/M02 A3003 RMK A01 T00211019  RH  074%=      5-min Rain = 0
KDC1 191200Z 00000KT 02/M02 A3003 RMK A01 T00211020  RH  075%=      5-min Rain = 0
KDC1 191201Z 00000KT 02/M02 A3003 RMK A01 T00201020  RH  075%=      5-min Rain = 0
KDC1 191202Z 00000KT 02/M02 A3003 RMK A01 T00201019  RH  075%=      5-min Rain = 0
KDC1 191203Z 00000KT 02/M02 A3003 RMK A01 T00201019  RH  075%=      5-min Rain = 0
KDC1 191204Z 28000KT 02/M02 A3003 RMK A01 T00201019  RH  075%=      5-min Rain = 0
KDC1 191205Z 34002KT 02/M02 A3003 RMK A01 T00211019  RH  075%=      5-min Rain = 0
KDC1 191206Z 34002KT 02/M02 A3003 RMK A01 T00211019  RH  075%=      5-min Rain = 0
KDC1 191207Z 34003KT 02/M02 A3003 RMK A01 T00211019  RH  075%=      5-min Rain = 0
KDC1 191208Z 35002KT 02/M02 A3003 RMK A01 T00201020  RH  075%=      5-min Rain = 0
KDC1 191209Z 34002KT 02/M02 A3003 RMK A01 T00191021  RH  075%=      5-min Rain = 0
KDC1 191210Z 34002KT 02/M02 A3003 RMK A01 T00181021  RH  075%=      5-min Rain = 0
KDC1 191211Z 34003KT 02/M02 A3003 RMK A01 T00181020  RH  076%=      5-min Rain = 0
KDC1 191212Z 34003KT 02/M02 A3003 RMK A01 T00181019  RH  077%=      5-min Rain = 0
KDC1 191213Z 34003KT 02/M02 A3003 RMK A01 T00181017  RH  077%=      5-min Rain = 0
KDC1 191214Z 35002KT 02/M02 A3003 RMK A01 T00191016  RH  077%=      5-min Rain = 0
KDC1 191215Z 00002KT 02/M02 A3003 RMK A01 T00201016  RH  077%=      5-min Rain = 0
KDC1 191216Z 00002KT 02/M02 A3003 RMK A01 T00201017  RH  077%=      5-min Rain = 0
KDC1 191217Z 01002KT 02/M02 A3003 RMK A01 T00201018  RH  076%=      5-min Rain = 0
KDC1 191218Z 01002KT 02/M02 A3003 RMK A01 T00201018  RH  076%=      5-min Rain = 0
KDC1 191219Z 01002KT 02/M02 A3003 RMK A01 T00201017  RH  077%=      5-min Rain = 0
KDC1 191220Z 00002KT 02/M02 A3003 RMK A01 T00201016  RH  077%=      5-min Rain = 0
KDC1 191221Z 36002KT 02/M02 A3003 RMK A01 T00211016  RH  077%=      5-min Rain = 0
KDC1 191222Z 35002KT 02/M02 A3003 RMK A01 T00211016  RH  077%=      5-min Rain = 0
KDC1 191223Z 35002KT 02/M02 A3003 RMK A01 T00201017  RH  076%=      5-min Rain = 0
KDC1 191224Z 35002KT 02/M02 A3003 RMK A01 T00181019  RH  076%=      5-min Rain = 0
KDC1 191225Z 35002KT 02/M02 A3003 RMK A01 T00171020  RH  076%=      5-min Rain = 0
KDC1 191226Z 35002KT 02/M02 A3003 RMK A01 T00151021  RH  077%=      5-min Rain = 0
KDC1 191227Z 34002KT 01/M02 A3003 RMK A01 T00141022  RH  077%=      5-min Rain = 0
KDC1 191228Z 34003KT 01/M02 A3003 RMK A01 T00141023  RH  076%=      5-min Rain = 0
KDC1 191229Z 34003KT 01/M02 A3003 RMK A01 T00131024  RH  076%=      5-min Rain = 0
KDC1 191230Z 34002KT 01/M03 A3003 RMK A01 T00131025  RH  076%=      5-min Rain = 0
KDC1 191231Z 34001KT 01/M02 A3003 RMK A01 T00131024  RH  077%=      5-min Rain = 0
KDC1 191232Z 34000KT 01/M02 A3003 RMK A01 T00131022  RH  077%=      5-min Rain = 0
KDC1 191233Z 00000KT 02/M02 A3003 RMK A01 T00151020  RH  078%=      5-min Rain = 0
KDC1 191234Z 00000KT 02/M02 A3004 RMK A01 T00161019  RH  077%=      5-min Rain = 0
KDC1 191235Z 00000KT 02/M02 A3004 RMK A01 T00161020  RH  077%=      5-min Rain = 0
KDC1 191236Z 00000KT 02/M02 A3004 RMK A01 T00171020  RH  077%=      5-min Rain = 0
KDC1 191237Z 00000KT 02/M02 A3004 RMK A01 T00171020  RH  076%=      5-min Rain = 0
KDC1 191238Z 00000KT 02/M02 A3004 RMK A01 T00171020  RH  076%=      5-min Rain = 0
KDC1 191239Z 00000KT 02/M02 A3004 RMK A01 T00171020  RH  076%=      5-min Rain = 0
KDC1 191240Z 00000KT 02/M02 A3004 RMK A01 T00171020  RH  076%=      5-min Rain = 0
KDC1 191241Z 00000KT 02/M02 A3004 RMK A01 T00161020  RH  077%=      5-min Rain = 0
KDC1 191242Z 21001KT 02/M02 A3004 RMK A01 T00161020  RH  077%=      5-min Rain = 0
KDC1 191243Z 22002KT 02/M02 A3004 RMK A01 T00161019  RH  078%=      5-min Rain = 0
KDC1 191244Z 22002KT 02/M02 A3004 RMK A01 T00161018  RH  078%=      5-min Rain = 0
KDC1 191245Z 23000KT 02/M02 A3004 RMK A01 T00161018  RH  078%=      5-min Rain = 0
KDC1 191246Z 00000KT 02/M02 A3004 RMK A01 T00161018  RH  078%=      5-min Rain = 0
KDC1 191247Z 00000KT 02/M02 A3004 RMK A01 T00161018  RH  078%=      5-min Rain = 0
KDC1 191248Z 00000KT 02/M02 A3004 RMK A01 T00161018  RH  078%=      5-min Rain = 0
KDC1 191249Z 00000KT 02/M02 A3004 RMK A01 T00151020  RH  078%=      5-min Rain = 0
KDC1 191250Z 00000KT 01/M02 A3004 RMK A01 T00141021  RH  078%=      5-min Rain = 0
KDC1 191251Z 24000KT 01/M02 A3004 RMK A01 T00131022  RH  078%=      5-min Rain = 0
KDC1 191252Z 25001KT 01/M02 A3004 RMK A01 T00131022  RH  078%=      5-min Rain = 0
KDC1 191253Z 23001KT 01/M02 A3004 RMK A01 T00131022  RH  078%=      5-min Rain = 0
KDC1 191254Z 22001KT 01/M02 A3004 RMK A01 T00121023  RH  078%=      5-min Rain = 0
KDC1 191255Z 23001KT 01/M02 A3004 RMK A01 T00121023  RH  078%=      5-min Rain = 0
KDC1 191256Z 23001KT 01/M02 A3004 RMK A01 T00131022  RH  078%=      5-min Rain = 0
KDC1 191257Z 22001KT 01/M02 A3004 RMK A01 T00121023  RH  077%=      5-min Rain = 0
KDC1 191258Z 22001KT 01/M02 A3004 RMK A01 T00121023  RH  077%=      5-min Rain = 0
KDC1 191259Z 23001KT 01/M02 A3004 RMK A01 T00121022  RH  078%=      5-min Rain = 0
KDC1 191300Z 22002KT 01/M02 A3004 RMK A01 T00131022  RH  077%=      5-min Rain = 0
KDC1 191301Z 22002KT 01/M02 A3004 RMK A01 T00131023  RH  077%=      5-min Rain = 0
KDC1 191302Z 22002KT 01/M02 A3004 RMK A01 T00121024  RH  077%=      5-min Rain = 0
KDC1 191303Z 22002KT 01/M02 A3004 RMK A01 T00121023  RH  077%=      5-min Rain = 0
KDC1 191304Z 22002KT 01/M02 A3004 RMK A01 T00121023  RH  077%=      5-min Rain = 0
KDC1 191305Z 21002KT 01/M02 A3004 RMK A01 T00131024  RH  076%=      5-min Rain = 0
KDC1 191306Z 21001KT 01/M03 A3004 RMK A01 T00121025  RH  076%=      5-min Rain = 0
KDC1 191307Z 21001KT 01/M03 A3004 RMK A01 T00121025  RH  076%=      5-min Rain = 0
KDC1 191308Z 21002KT 01/M03 A3004 RMK A01 T00121026  RH  076%=      5-min Rain = 0
KDC1 191309Z 21001KT 01/M03 A3004 RMK A01 T00111026  RH  076%=      5-min Rain = 0
KDC1 191310Z 21001KT 01/M03 A3004 RMK A01 T00111026  RH  076%=      5-min Rain = 0
KDC1 191311Z 21002KT 01/M03 A3004 RMK A01 T00111026  RH  076%=      5-min Rain = 0
KDC1 191312Z 22002KT 01/M03 A3004 RMK A01 T00101027  RH  076%=      5-min Rain = 0
KDC1 191313Z 22002KT 01/M03 A3005 RMK A01 T00101027  RH  076%=      5-min Rain = 0
KDC1 191314Z 21002KT 01/M03 A3005 RMK A01 T00101028  RH  076%=      5-min Rain = 0
KDC1 191315Z 20001KT 01/M03 A3005 RMK A01 T00091028  RH  076%=      5-min Rain = 0
KDC1 191316Z 19001KT 01/M03 A3005 RMK A01 T00091029  RH  076%=      5-min Rain = 0
KDC1 191317Z 19000KT 01/M03 A3005 RMK A01 T00091029  RH  076%=      5-min Rain = 0
KDC1 191318Z 18001KT 01/M03 A3005 RMK A01 T00091028  RH  077%=      5-min Rain = 0
KDC1 191319Z 18001KT 01/M03 A3005 RMK A01 T00091027  RH  077%=      5-min Rain = 0
KDC1 191320Z 18001KT 01/M03 A3004 RMK A01 T00101028  RH  076%=      5-min Rain = 0
KDC1 191321Z 00000KT 01/M03 A3004 RMK A01 T00091028  RH  076%=      5-min Rain = 0
KDC1 191322Z 00000KT 01/M03 A3004 RMK A01 T00101028  RH  076%=      5-min Rain = 0
KDC1 191323Z 00000KT 01/M03 A3004 RMK A01 T00101029  RH  076%=      5-min Rain = 0
KDC1 191324Z 00000KT 01/M03 A3005 RMK A01 T00081031  RH  075%=      5-min Rain = 0
KDC1 191325Z 00000KT 01/M03 A3005 RMK A01 T00081032  RH  075%=      5-min Rain = 0
KDC1 191326Z 00000KT 01/M03 A3005 RMK A01 T00071032  RH  075%=      5-min Rain = 0
KDC1 191327Z 00000KT 01/M03 A3005 RMK A01 T00071031  RH  076%=      5-min Rain = 0
KDC1 191328Z 00000KT 01/M03 A3005 RMK A01 T00061031  RH  076%=      5-min Rain = 0
KDC1 191329Z 00000KT 01/M03 A3005 RMK A01 T00071029  RH  077%=      5-min Rain = 0
KDC1 191330Z 00000KT 01/M03 A3005 RMK A01 T00071028  RH  077%=      5-min Rain = 0
KDC1 191331Z 00000KT 01/M03 A3005 RMK A01 T00081029  RH  076%=      5-min Rain = 0
KDC1 191332Z 00000KT 01/M03 A3005 RMK A01 T00081029  RH  076%=      5-min Rain = 0
KDC1 191333Z 00000KT 01/M03 A3005 RMK A01 T00081029  RH  076%=      5-min Rain = 0
KDC1 191334Z 25000KT 01/M03 A3005 RMK A01 T00071031  RH  076%=      5-min Rain = 0
KDC1 191335Z 24002KT 01/M03 A3005 RMK A01 T00061031  RH  076%=      5-min Rain = 0
KDC1 191336Z 23002KT 01/M03 A3005 RMK A01 T00071030  RH  077%=      5-min Rain = 0
KDC1 191337Z 24002KT 01/M03 A3005 RMK A01 T00081029  RH  076%=      5-min Rain = 0
KDC1 191338Z 25003KT 01/M03 A3005 RMK A01 T00081029  RH  076%=      5-min Rain = 0
KDC1 191339Z 25003KT 01/M03 A3004 RMK A01 T00081030  RH  076%=      5-min Rain = 0
KDC1 191340Z 26004KT 01/M03 A3004 RMK A01 T00081030  RH  076%=      5-min Rain = 0
KDC1 191341Z 26004KT 01/M03 A3005 RMK A01 T00081030  RH  076%=      5-min Rain = 0
KDC1 191342Z 26003KT 01/M03 A3005 RMK A01 T00081029  RH  076%=      5-min Rain = 0
KDC1 191343Z 26004KT 01/M03 A3005 RMK A01 T00081029  RH  076%=      5-min Rain = 0
KDC1 191344Z 26005KT 01/M03 A3005 RMK A01 T00071029  RH  076%=      5-min Rain = 0
KDC1 191345Z 26005KT 01/M03 A3005 RMK A01 T00061030  RH  077%=      5-min Rain = 0
KDC1 191346Z 25005KT 01/M03 A3005 RMK A01 T00061029  RH  077%=      5-min Rain = 0
KDC1 191347Z 25005KT 01/M03 A3005 RMK A01 T00061029  RH  077%=      5-min Rain = 0
KDC1 191348Z 26005KT 01/M03 A3005 RMK A01 T00071029  RH  077%=      5-min Rain = 0
KDC1 191349Z 26005KT 01/M03 A3005 RMK A01 T00081029  RH  076%=      5-min Rain = 0
KDC1 191350Z 26005KT 01/M03 A3005 RMK A01 T00081029  RH  076%=      5-min Rain = 0
KDC1 191351Z 26005KT 01/M03 A3005 RMK A01 T00091029  RH  076%=      5-min Rain = 0
KDC1 191352Z 26005KT 01/M03 A3005 RMK A01 T00091029  RH  076%=      5-min Rain = 0
KDC1 191353Z 27005KT 01/M03 A3005 RMK A01 T00101029  RH  075%=      5-min Rain = 0
KDC1 191354Z 28005KT 01/M03 A3005 RMK A01 T00101029  RH  075%=      5-min Rain = 0
KDC1 191355Z 28006KT 01/M03 A3005 RMK A01 T00091030  RH  075%=      5-min Rain = 0
KDC1 191356Z 29006KT 01/M03 A3005 RMK A01 T00081030  RH  076%=      5-min Rain = 0
KDC1 191357Z 29006KT 01/M03 A3005 RMK A01 T00061032  RH  076%=      5-min Rain = 0
KDC1 191358Z 29006KT 00/M03 A3005 RMK A01 T00041033  RH  076%=      5-min Rain = 0
KDC1 191359Z 29006KT 00/M03 A3005 RMK A01 T00031033  RH  077%=      5-min Rain = 0
KDC1 191400Z 29005KT 00/M03 A3005 RMK A01 T00041031  RH  077%=      5-min Rain = 0
KDC1 191401Z 29005KT 01/M03 A3005 RMK A01 T00051031  RH  077%=      5-min Rain = 0
KDC1 191402Z 30004KT 01/M03 A3005 RMK A01 T00061029  RH  077%=      5-min Rain = 0
KDC1 191403Z 29004KT 01/M03 A3006 RMK A01 T00081028  RH  077%=      5-min Rain = 0
KDC1 191404Z 29004KT 01/M03 A3006 RMK A01 T00091028  RH  077%=      5-min Rain = 0
KDC1 191405Z 29004KT 01/M03 A3006 RMK A01 T00091028  RH  076%=      5-min Rain = 0
KDC1 191406Z 29003KT 01/M03 A3006 RMK A01 T00101027  RH  076%=      5-min Rain = 0
KDC1 191407Z 29003KT 01/M03 A3006 RMK A01 T00101027  RH  076%=      5-min Rain = 0
KDC1 191408Z 28003KT 01/M03 A3006 RMK A01 T00111026  RH  076%=      5-min Rain = 0
KDC1 191409Z 28004KT 01/M03 A3006 RMK A01 T00121025  RH  076%=      5-min Rain = 0
KDC1 191410Z 28004KT 01/M03 A3006 RMK A01 T00131025  RH  076%=      5-min Rain = 0
KDC1 191411Z 28005KT 01/M02 A3006 RMK A01 T00141024  RH  076%=      5-min Rain = 0
KDC1 191412Z 28004KT 02/M02 A3006 RMK A01 T00151023  RH  076%=      5-min Rain = 0
KDC1 191413Z 28005KT 02/M02 A3006 RMK A01 T00161023  RH  075%=      5-min Rain = 0
KDC1 191414Z 29004KT 02/M02 A3006 RMK A01 T00161023  RH  075%=      5-min Rain = 0
KDC1 191415Z 29004KT 02/M02 A3006 RMK A01 T00171021  RH  075%=      5-min Rain = 0
KDC1 191416Z 29005KT 02/M02 A3006 RMK A01 T00191020  RH  075%=      5-min Rain = 0
KDC1 191417Z 29005KT 02/M02 A3006 RMK A01 T00211019  RH  075%=      5-min Rain = 0
KDC1 191418Z 29005KT 02/M02 A3006 RMK A01 T00231019  RH  074%=      5-min Rain = 0
KDC1 191419Z 29004KT 03/M02 A3006 RMK A01 T00251018  RH  073%=      5-min Rain = 0
KDC1 191420Z 29004KT 03/M02 A3006 RMK A01 T00261018  RH  073%=      5-min Rain = 0
KDC1 191421Z 29004KT 03/M02 A3006 RMK A01 T00281018  RH  072%=      5-min Rain = 0
KDC1 191422Z 29003KT 03/M02 A3006 RMK A01 T00291017  RH  071%=      5-min Rain = 0
KDC1 191423Z 29003KT 03/M02 A3006 RMK A01 T00311017  RH  071%=      5-min Rain = 0
KDC1 191424Z 28003KT 03/M02 A3006 RMK A01 T00321017  RH  070%=      5-min Rain = 0
KDC1 191425Z 28003KT 03/M02 A3006 RMK A01 T00331016  RH  070%=      5-min Rain = 0
KDC1 191426Z 28003KT 04/M02 A3006 RMK A01 T00351015  RH  070%=      5-min Rain = 0
KDC1 191427Z 28003KT 04/M02 A3006 RMK A01 T00361015  RH  070%=      5-min Rain = 0
KDC1 191428Z 28003KT 04/M01 A3006 RMK A01 T00371014  RH  069%=      5-min Rain = 0
KDC1 191429Z 28003KT 04/M01 A3006 RMK A01 T00381014  RH  069%=      5-min Rain = 0
KDC1 191430Z 28003KT 04/M01 A3006 RMK A01 T00391013  RH  069%=      5-min Rain = 0
KDC1 191431Z 28003KT 04/M01 A3006 RMK A01 T00401013  RH  068%=      5-min Rain = 0
KDC1 191432Z 28003KT 04/M01 A3006 RMK A01 T00411013  RH  068%=      5-min Rain = 0
KDC1 191433Z 28003KT 04/M01 A3006 RMK A01 T00411013  RH  068%=      5-min Rain = 0
KDC1 191434Z 27003KT 04/M01 A3006 RMK A01 T00421012  RH  068%=      5-min Rain = 0
KDC1 191435Z 26003KT 04/M01 A3006 RMK A01 T00431012  RH  067%=      5-min Rain = 0
KDC1 191436Z 25002KT 04/M01 A3006 RMK A01 T00441012  RH  067%=      5-min Rain = 0
KDC1 191437Z 23001KT 05/M01 A3006 RMK A01 T00461012  RH  066%=      5-min Rain = 0
KDC1 191438Z 25002KT 05/M01 A3006 RMK A01 T00481012  RH  065%=      5-min Rain = 0
KDC1 191439Z 22002KT 05/M01 A3006 RMK A01 T00491014  RH  064%=      5-min Rain = 0
KDC1 191440Z 23001KT 05/M01 A3006 RMK A01 T00511013  RH  064%=      5-min Rain = 0
KDC1 191441Z 26001KT 05/M01 A3006 RMK A01 T00521012  RH  063%=      5-min Rain = 0
KDC1 191442Z 26001KT 05/M01 A3006 RMK A01 T00541012  RH  063%=      5-min Rain = 0
KDC1 191443Z 27002KT 05/M01 A3006 RMK A01 T00541011  RH  063%=      5-min Rain = 0
KDC1 191444Z 27001KT 06/M01 A3006 RMK A01 T00551010  RH  063%=      5-min Rain = 0
KDC1 191445Z 27001KT 06/M01 A3006 RMK A01 T00551008  RH  063%=      5-min Rain = 0
KDC1 191446Z 27001KT 06/M01 A3006 RMK A01 T00561007  RH  064%=      5-min Rain = 0
KDC1 191447Z 27002KT 06/M01 A3006 RMK A01 T00561007  RH  063%=      5-min Rain = 0
KDC1 191448Z 27002KT 06/M01 A3006 RMK A01 T00571008  RH  063%=      5-min Rain = 0
KDC1 191449Z 27002KT 06/M01 A3006 RMK A01 T00571008  RH  063%=      5-min Rain = 0
KDC1 191450Z 27002KT 06/M01 A3006 RMK A01 T00581007  RH  063%=      5-min Rain = 0
KDC1 191451Z 27001KT 06/M01 A3006 RMK A01 T00591007  RH  063%=      5-min Rain = 0
KDC1 191452Z 25002KT 06/M01 A3006 RMK A01 T00601006  RH  062%=      5-min Rain = 0
KDC1 191453Z 25002KT 06/M01 A3006 RMK A01 T00621006  RH  062%=      5-min Rain = 0
KDC1 191454Z 26001KT 06/M01 A3006 RMK A01 T00631006  RH  061%=      5-min Rain = 0
KDC1 191455Z 26002KT 07/M01 A3006 RMK A01 T00651005  RH  061%=      5-min Rain = 0
KDC1 191456Z 26002KT 07/M01 A3006 RMK A01 T00661007  RH  060%=      5-min Rain = 0
KDC1 191457Z 23001KT 07/M01 A3006 RMK A01 T00671007  RH  059%=      5-min Rain = 0
KDC1 191458Z 24001KT 07/M01 A3007 RMK A01 T00691006  RH  059%=      5-min Rain = 0
KDC1 191459Z 23001KT 07/M01 A3007 RMK A01 T00691008  RH  058%=      5-min Rain = 0
KDC1 191500Z 23002KT 07/M01 A3007 RMK A01 T00701007  RH  058%=      5-min Rain = 0
KDC1 191501Z 24001KT 07/M01 A3007 RMK A01 T00711007  RH  057%=      5-min Rain = 0
KDC1 191502Z 25002KT 07/M01 A3007 RMK A01 T00721006  RH  058%=      5-min Rain = 0
KDC1 191503Z 23001KT 07/M00 A3007 RMK A01 T00731004  RH  058%=      5-min Rain = 0
KDC1 191504Z 26001KT 07/M01 A3007 RMK A01 T00731005  RH  057%=      5-min Rain = 0
KDC1 191505Z 24001KT 07/M01 A3007 RMK A01 T00741005  RH  057%=      5-min Rain = 0
KDC1 191506Z 25001KT 08/M01 A3007 RMK A01 T00751006  RH  057%=      5-min Rain = 0
KDC1 191507Z 25001KT 08/M01 A3007 RMK A01 T00761006  RH  056%=      5-min Rain = 0
KDC1 191508Z 27001KT 08/M01 A3007 RMK A01 T00761007  RH  056%=      5-min Rain = 0
KDC1 191509Z 29002KT 08/M01 A3007 RMK A01 T00761009  RH  055%=      5-min Rain = 0
KDC1 191510Z 30002KT 08/M01 A3007 RMK A01 T00761011  RH  054%=      5-min Rain = 0
KDC1 191511Z 30002KT 08/M01 A3007 RMK A01 T00761014  RH  053%=      5-min Rain = 0
KDC1 191512Z 31002KT 08/M01 A3007 RMK A01 T00761013  RH  053%=      5-min Rain = 0
KDC1 191513Z 31002KT 08/M01 A3007 RMK A01 T00751010  RH  055%=      5-min Rain = 0
KDC1 191514Z 31001KT 08/M01 A3007 RMK A01 T00751009  RH  055%=      5-min Rain = 0
KDC1 191515Z 33000KT 08/M01 A3007 RMK A01 T00751009  RH  055%=      5-min Rain = 0
KDC1 191516Z 00000KT 08/M01 A3007 RMK A01 T00761008  RH  055%=      5-min Rain = 0
KDC1 191517Z 00000KT 08/M01 A3007 RMK A01 T00771008  RH  055%=      5-min Rain = 0
KDC1 191518Z 00000KT 08/M01 A3007 RMK A01 T00781009  RH  054%=      5-min Rain = 0
KDC1 191519Z 00000KT 08/M01 A3007 RMK A01 T00791008  RH  054%=      5-min Rain = 0
KDC1 191520Z 00000KT 08/M01 A3007 RMK A01 T00801008  RH  054%=      5-min Rain = 0
KDC1 191521Z 00000KT 08/M01 A3007 RMK A01 T00821007  RH  053%=      5-min Rain = 0
KDC1 191522Z 00000KT 08/M01 A3007 RMK A01 T00841007  RH  053%=      5-min Rain = 0
KDC1 191523Z 00000KT 09/M01 A3007 RMK A01 T00851006  RH  052%=      5-min Rain = 0
KDC1 191524Z 00000KT 09/M01 A3007 RMK A01 T00871006  RH  052%=      5-min Rain = 0
KDC1 191525Z 00000KT 09/M01 A3007 RMK A01 T00881005  RH  052%=      5-min Rain = 0
KDC1 191526Z 07000KT 09/M01 A3007 RMK A01 T00891005  RH  051%=      5-min Rain = 0
KDC1 191527Z 07001KT 09/M01 A3007 RMK A01 T00901007  RH  051%=      5-min Rain = 0
KDC1 191528Z 06000KT 09/M01 A3007 RMK A01 T00881008  RH  051%=      5-min Rain = 0
KDC1 191529Z 06001KT 09/M01 A3007 RMK A01 T00871008  RH  051%=      5-min Rain = 0
KDC1 191530Z 04000KT 09/M01 A3007 RMK A01 T00861008  RH  052%=      5-min Rain = 0
KDC1 191531Z 01000KT 09/M01 A3007 RMK A01 T00851008  RH  052%=      5-min Rain = 0
KDC1 191532Z 01000KT 09/M01 A3007 RMK A01 T00861007  RH  052%=      5-min Rain = 0
KDC1 191533Z 04000KT 09/M01 A3007 RMK A01 T00871007  RH  052%=      5-min Rain = 0
KDC1 191534Z 00000KT 09/M01 A3007 RMK A01 T00881006  RH  052%=      5-min Rain = 0
KDC1 191535Z 32001KT 09/M01 A3007 RMK A01 T00891006  RH  051%=      5-min Rain = 0
KDC1 191536Z 32001KT 09/M01 A3007 RMK A01 T00891006  RH  051%=      5-min Rain = 0
KDC1 191537Z 31000KT 09/M01 A3007 RMK A01 T00891006  RH  051%=      5-min Rain = 0
KDC1 191538Z 00000KT 09/M01 A3007 RMK A01 T00901006  RH  051%=      5-min Rain = 0
KDC1 191539Z 05001KT 09/M01 A3007 RMK A01 T00911005  RH  051%=      5-min Rain = 0
KDC1 191540Z 03002KT 09/M01 A3007 RMK A01 T00911005  RH  051%=      5-min Rain = 0
KDC1 191541Z 02002KT 09/M01 A3007 RMK A01 T00911006  RH  051%=      5-min Rain = 0
KDC1 191542Z 04002KT 09/M01 A3007 RMK A01 T00901007  RH  051%=      5-min Rain = 0
KDC1 191543Z 04003KT 09/M01 A3007 RMK A01 T00901007  RH  051%=      5-min Rain = 0
KDC1 191544Z 05003KT 09/M01 A3007 RMK A01 T00901006  RH  051%=      5-min Rain = 0
KDC1 191545Z 07003KT 09/M01 A3007 RMK A01 T00901005  RH  051%=      5-min Rain = 0
KDC1 191546Z 07002KT 09/M01 A3007 RMK A01 T00901005  RH  051%=      5-min Rain = 0
KDC1 191547Z 05001KT 09/M01 A3007 RMK A01 T00921005  RH  051%=      5-min Rain = 0
KDC1 191548Z 06002KT 09/M00 A3007 RMK A01 T00931001  RH  052%=      5-min Rain = 0
KDC1 191549Z 07002KT 10/00 A3007 RMK A01 T00950003  RH  053%=      5-min Rain = 0
KDC1 191550Z 05002KT 10/00 A3007 RMK A01 T00950003  RH  053%=      5-min Rain = 0
KDC1 191551Z 06003KT 10/00 A3007 RMK A01 T00950003  RH  053%=      5-min Rain = 0
KDC1 191552Z 05002KT 09/00 A3007 RMK A01 T00940003  RH  053%=      5-min Rain = 0
KDC1 191553Z 04002KT 09/00 A3007 RMK A01 T00930002  RH  053%=      5-min Rain = 0
KDC1 191554Z 03001KT 09/00 A3007 RMK A01 T00930000  RH  052%=      5-min Rain = 0
KDC1 191555Z 05001KT 09/00 A3007 RMK A01 T00920002  RH  053%=      5-min Rain = 0
KDC1 191556Z 05002KT 09/00 A3007 RMK A01 T00920002  RH  053%=      5-min Rain = 0
KDC1 191557Z 05002KT 09/00 A3007 RMK A01 T00920003  RH  053%=      5-min Rain = 0
KDC1 191558Z 07003KT 09/00 A3007 RMK A01 T00920004  RH  054%=      5-min Rain = 0
KDC1 191559Z 05002KT 09/01 A3007 RMK A01 T00940006  RH  054%=      5-min Rain = 0
KDC1 191600Z 04002KT 10/01 A3007 RMK A01 T00960005  RH  053%=      5-min Rain = 0
KDC1 191601Z 03002KT 10/00 A3007 RMK A01 T00960004  RH  053%=      5-min Rain = 0
KDC1 191602Z 04003KT 10/00 A3007 RMK A01 T00970003  RH  052%=      5-min Rain = 0
KDC1 191603Z 04003KT 10/00 A3007 RMK A01 T00970002  RH  051%=      5-min Rain = 0
KDC1 191604Z 04003KT 10/00 A3007 RMK A01 T009700-0  RH  051%=      5-min Rain = 0
KDC1 191605Z 03002KT 10/M00 A3007 RMK A01 T00951001  RH  051%=      5-min Rain = 0
KDC1 191606Z 02003KT 10/M00 A3007 RMK A01 T00951001  RH  051%=      5-min Rain = 0
KDC1 191607Z 02002KT 10/00 A3007 RMK A01 T009500-0  RH  051%=      5-min Rain = 0
KDC1 191608Z 04002KT 10/00 A3007 RMK A01 T00960001  RH  051%=      5-min Rain = 0
KDC1 191609Z 03002KT 10/M00 A3007 RMK A01 T00981001  RH  050%=      5-min Rain = 0
KDC1 191610Z 02003KT 10/M00 A3007 RMK A01 T00981002  RH  050%=      5-min Rain = 0
KDC1 191611Z 03003KT 10/M00 A3007 RMK A01 T00971004  RH  049%=      5-min Rain = 0
KDC1 191612Z 04003KT 10/M01 A3007 RMK A01 T00961005  RH  049%=      5-min Rain = 0
KDC1 191613Z 04003KT 10/M01 A3007 RMK A01 T00951006  RH  049%=      5-min Rain = 0
KDC1 191614Z 05002KT 10/M01 A3007 RMK A01 T00951006  RH  049%=      5-min Rain = 0
KDC1 191615Z 06003KT 10/M01 A3007 RMK A01 T00961005  RH  049%=      5-min Rain = 0
KDC1 191616Z 07004KT 10/M01 A3007 RMK A01 T00961006  RH  049%=      5-min Rain = 0
KDC1 191617Z 07003KT 10/M01 A3007 RMK A01 T00961007  RH  049%=      5-min Rain = 0
KDC1 191618Z 09003KT 10/M01 A3007 RMK A01 T00961005  RH  049%=      5-min Rain = 0
KDC1 191619Z 09003KT 10/M00 A3007 RMK A01 T00961004  RH  050%=      5-min Rain = 0
KDC1 191620Z 09004KT 10/M00 A3007 RMK A01 T00961003  RH  050%=      5-min Rain = 0
KDC1 191621Z 09004KT 10/M00 A3007 RMK A01 T00981001  RH  050%=      5-min Rain = 0
KDC1 191622Z 10003KT 10/00 A3007 RMK A01 T00990001  RH  050%=      5-min Rain = 0
KDC1 191623Z 08004KT 10/00 A3007 RMK A01 T01000001  RH  050%=      5-min Rain = 0
KDC1 191624Z 09004KT 10/00 A3007 RMK A01 T01000000  RH  050%=      5-min Rain = 0
KDC1 191625Z 09004KT 10/00 A3007 RMK A01 T010100-0  RH  049%=      5-min Rain = 0
KDC1 191626Z 09004KT 10/M00 A3007 RMK A01 T01011001  RH  049%=      5-min Rain = 0
KDC1 191627Z 09004KT 10/M00 A3007 RMK A01 T01011002  RH  049%=      5-min Rain = 0
KDC1 191628Z 10004KT 10/M00 A3007 RMK A01 T01011001  RH  049%=      5-min Rain = 0
KDC1 191629Z 09004KT 10/00 A3007 RMK A01 T01010001  RH  050%=      5-min Rain = 0
KDC1 191630Z 10004KT 10/00 A3007 RMK A01 T00990000  RH  050%=      5-min Rain = 0
KDC1 191631Z 10004KT 10/00 A3007 RMK A01 T00980001  RH  051%=      5-min Rain = 0
KDC1 191632Z 10003KT 10/00 A3007 RMK A01 T00980001  RH  051%=      5-min Rain = 0
KDC1 191633Z 11003KT 10/00 A3007 RMK A01 T00980000  RH  051%=      5-min Rain = 0
KDC1 191634Z 11003KT 10/00 A3007 RMK A01 T01000003  RH  051%=      5-min Rain = 0
KDC1 191635Z 11003KT 10/00 A3007 RMK A01 T01020003  RH  050%=      5-min Rain = 0
KDC1 191636Z 10003KT 10/00 A3007 RMK A01 T01020002  RH  050%=      5-min Rain = 0
KDC1 191637Z 10003KT 10/00 A3007 RMK A01 T01000003  RH  051%=      5-min Rain = 0
KDC1 191638Z 10003KT 10/00 A3007 RMK A01 T01000003  RH  051%=      5-min Rain = 0
KDC1 191639Z 10004KT 10/01 A3007 RMK A01 T01010005  RH  051%=      5-min Rain = 0
KDC1 191640Z 08003KT 10/01 A3007 RMK A01 T01030005  RH  051%=      5-min Rain = 0
KDC1 191641Z 08003KT 10/00 A3007 RMK A01 T01040004  RH  050%=      5-min Rain = 0
KDC1 191642Z 08003KT 11/01 A3007 RMK A01 T01050005  RH  050%=      5-min Rain = 0
KDC1 191643Z 09003KT 11/00 A3007 RMK A01 T01070004  RH  049%=      5-min Rain = 0
KDC1 191644Z 09003KT 11/00 A3007 RMK A01 T01080004  RH  048%=      5-min Rain = 0
KDC1 191645Z 09003KT 11/00 A3006 RMK A01 T01080002  RH  048%=      5-min Rain = 0
KDC1 191646Z 09003KT 11/00 A3006 RMK A01 T01080001  RH  048%=      5-min Rain = 0
KDC1 191647Z 08003KT 11/M00 A3006 RMK A01 T01071002  RH  047%=      5-min Rain = 0
KDC1 191648Z 09003KT 11/M00 A3006 RMK A01 T01081001  RH  047%=      5-min Rain = 0
KDC1 191649Z 08003KT 11/M00 A3006 RMK A01 T01091002  RH  046%=      5-min Rain = 0
KDC1 191650Z 09003KT 11/M00 A3006 RMK A01 T01101004  RH  045%=      5-min Rain = 0
KDC1 191651Z 09002KT 11/M00 A3006 RMK A01 T01101003  RH  045%=      5-min Rain = 0
KDC1 191652Z 09003KT 11/M00 A3006 RMK A01 T01131001  RH  045%=      5-min Rain = 0
KDC1 191653Z 08003KT 11/M00 A3006 RMK A01 T01141002  RH  045%=      5-min Rain = 0
KDC1 191654Z 10003KT 12/00 A3006 RMK A01 T01150000  RH  045%=      5-min Rain = 0
KDC1 191655Z 10004KT 12/01 A3006 RMK A01 T01160005  RH  046%=      5-min Rain = 0
KDC1 191656Z 11002KT 12/00 A3006 RMK A01 T01170003  RH  045%=      5-min Rain = 0
KDC1 191657Z 10003KT 12/00 A3006 RMK A01 T01170003  RH  045%=      5-min Rain = 0
KDC1 191658Z 08003KT 12/00 A3006 RMK A01 T01170002  RH  045%=      5-min Rain = 0
KDC1 191659Z 10003KT 12/00 A3006 RMK A01 T01170004  RH  046%=      5-min Rain = 0
KDC1 191700Z 11002KT 12/00 A3006 RMK A01 T01170001  RH  045%=      5-min Rain = 0
KDC1 191701Z 11002KT 12/00 A3006 RMK A01 T01160001  RH  045%=      5-min Rain = 0
KDC1 191702Z 10001KT 12/00 A3006 RMK A01 T01190004  RH  045%=      5-min Rain = 0
KDC1 191703Z 09002KT 12/00 A3006 RMK A01 T01200001  RH  044%=      5-min Rain = 0
KDC1 191704Z 11002KT 12/00 A3006 RMK A01 T01210001  RH  044%=      5-min Rain = 0
KDC1 191705Z 10002KT 12/M00 A3006 RMK A01 T01201001  RH  043%=      5-min Rain = 0
KDC1 191706Z 08001KT 12/00 A3006 RMK A01 T012100-0  RH  043%=      5-min Rain = 0
KDC1 191707Z 08002KT 12/00 A3006 RMK A01 T01230001  RH  043%=      5-min Rain = 0
KDC1 191708Z 10002KT 12/M00 A3006 RMK A01 T01241003  RH  042%=      5-min Rain = 0
KDC1 191709Z 11001KT 13/M00 A3006 RMK A01 T01251002  RH  042%=      5-min Rain = 0
KDC1 191710Z 13001KT 13/M00 A3006 RMK A01 T01261003  RH  041%=      5-min Rain = 0
KDC1 191711Z 10002KT 13/00 A3006 RMK A01 T01290001  RH  041%=      5-min Rain = 0
KDC1 191712Z 07001KT 13/M00 A3006 RMK A01 T01311001  RH  040%=      5-min Rain = 0
KDC1 191713Z 05000KT 13/M00 A3006 RMK A01 T01311003  RH  040%=      5-min Rain = 0
KDC1 191714Z 14001KT 13/M01 A3005 RMK A01 T01321005  RH  039%=      5-min Rain = 0
KDC1 191715Z 12002KT 13/M01 A3005 RMK A01 T01321007  RH  038%=      5-min Rain = 0
KDC1 191716Z 08002KT 13/M01 A3005 RMK A01 T01331007  RH  038%=      5-min Rain = 0
KDC1 191717Z 07002KT 13/M01 A3005 RMK A01 T01331006  RH  038%=      5-min Rain = 0
KDC1 191718Z 07002KT 13/M01 A3005 RMK A01 T01311006  RH  039%=      5-min Rain = 0
KDC1 191719Z 07002KT 13/M00 A3005 RMK A01 T01301004  RH  039%=      5-min Rain = 0
KDC1 191720Z 06002KT 13/M00 A3005 RMK A01 T01301004  RH  040%=      5-min Rain = 0
KDC1 191721Z 07002KT 13/M01 A3005 RMK A01 T01301006  RH  039%=      5-min Rain = 0
KDC1 191722Z 11002KT 13/M01 A3005 RMK A01 T01301006  RH  039%=      5-min Rain = 0
KDC1 191723Z 10001KT 13/M00 A3005 RMK A01 T01301004  RH  040%=      5-min Rain = 0
KDC1 191724Z 10002KT 13/M00 A3005 RMK A01 T01301004  RH  039%=      5-min Rain = 0
KDC1 191725Z 08002KT 13/M01 A3005 RMK A01 T01311005  RH  039%=      5-min Rain = 0
KDC1 191726Z 08002KT 13/M01 A3005 RMK A01 T01321006  RH  039%=      5-min Rain = 0
KDC1 191727Z 10002KT 13/M00 A3005 RMK A01 T01331002  RH  039%=      5-min Rain = 0
KDC1 191728Z 09002KT 13/M00 A3005 RMK A01 T01331004  RH  039%=      5-min Rain = 0
KDC1 191729Z 09002KT 13/M00 A3004 RMK A01 T01331001  RH  040%=      5-min Rain = 0
KDC1 191730Z 09001KT 13/00 A3004 RMK A01 T01330002  RH  040%=      5-min Rain = 0
KDC1 191731Z 07001KT 13/00 A3004 RMK A01 T01330002  RH  041%=      5-min Rain = 0
KDC1 191732Z 07002KT 13/00 A3004 RMK A01 T01340001  RH  040%=      5-min Rain = 0
KDC1 191733Z 08002KT 13/00 A3004 RMK A01 T01340001  RH  040%=      5-min Rain = 0
KDC1 191734Z 06002KT 14/00 A3004 RMK A01 T01350000  RH  039%=      5-min Rain = 0
KDC1 191735Z 05002KT 14/M00 A3004 RMK A01 T01351002  RH  039%=      5-min Rain = 0
KDC1 191736Z 08002KT 14/00 A3004 RMK A01 T01350001  RH  040%=      5-min Rain = 0
KDC1 191737Z 09002KT 14/00 A3004 RMK A01 T01370002  RH  040%=      5-min Rain = 0
KDC1 191738Z 08002KT 14/00 A3004 RMK A01 T01380002  RH  039%=      5-min Rain = 0
KDC1 191739Z 07003KT 14/00 A3004 RMK A01 T01400004  RH  039%=      5-min Rain = 0
KDC1 191740Z 06003KT 14/00 A3004 RMK A01 T01410000  RH  038%=      5-min Rain = 0
KDC1 191741Z 06001KT 14/00 A3004 RMK A01 T014000-0  RH  038%=      5-min Rain = 0
KDC1 191742Z 07002KT 14/00 A3004 RMK A01 T01410003  RH  039%=      5-min Rain = 0
KDC1 191743Z 06002KT 14/00 A3003 RMK A01 T01420002  RH  038%=      5-min Rain = 0
KDC1 191744Z 06003KT 14/00 A3003 RMK A01 T01420002  RH  038%=      5-min Rain = 0
KDC1 191745Z 06003KT 14/00 A3003 RMK A01 T01430002  RH  038%=      5-min Rain = 0
KDC1 191746Z 07003KT 14/00 A3003 RMK A01 T01430001  RH  038%=      5-min Rain = 0
KDC1 191747Z 08003KT 15/00 A3003 RMK A01 T01450003  RH  038%=      5-min Rain = 0
KDC1 191748Z 07003KT 15/00 A3003 RMK A01 T01460002  RH  037%=      5-min Rain = 0
KDC1 191749Z 07002KT 15/00 A3003 RMK A01 T01460002  RH  037%=      5-min Rain = 0
KDC1 191750Z 05002KT 15/00 A3003 RMK A01 T01450001  RH  037%=      5-min Rain = 0
KDC1 191751Z 09002KT 15/00 A3003 RMK A01 T01450001  RH  037%=      5-min Rain = 0
KDC1 191752Z 09001KT 15/00 A3003 RMK A01 T01450002  RH  038%=      5-min Rain = 0
KDC1 191753Z 11001KT 15/01 A3003 RMK A01 T01470005  RH  038%=      5-min Rain = 0
KDC1 191754Z 10001KT 15/00 A3003 RMK A01 T01500004  RH  037%=      5-min Rain = 0
KDC1 191755Z 04001KT 15/00 A3002 RMK A01 T01510000  RH  036%=      5-min Rain = 0
KDC1 191756Z 10001KT 15/00 A3002 RMK A01 T01500002  RH  036%=      5-min Rain = 0
KDC1 191757Z 11001KT 15/00 A3002 RMK A01 T01520004  RH  037%=      5-min Rain = 0
KDC1 191758Z 08001KT 15/00 A3002 RMK A01 T01530003  RH  036%=      5-min Rain = 0
KDC1 191759Z 07002KT 16/01 A3002 RMK A01 T01550005  RH  036%=      5-min Rain = 0
KDC1 191800Z 08002KT 16/00 A3002 RMK A01 T01550003  RH  035%=      5-min Rain = 0
KDC1 191801Z 09001KT 15/00 A3002 RMK A01 T01540003  RH  036%=      5-min Rain = 0
KDC1 191802Z 17001KT 16/01 A3002 RMK A01 T01550006  RH  036%=      5-min Rain = 0
KDC1 191803Z 13002KT 16/01 A3002 RMK A01 T01580009  RH  036%=      5-min Rain = 0
KDC1 191804Z 12003KT 16/01 A3002 RMK A01 T01600008  RH  036%=      5-min Rain = 0
KDC1 191805Z 10003KT 16/01 A3002 RMK A01 T01580008  RH  036%=      5-min Rain = 0
KDC1 191806Z 11003KT 16/01 A3002 RMK A01 T01570008  RH  036%=      5-min Rain = 0
KDC1 191807Z 13004KT 16/01 A3002 RMK A01 T01570010  RH  037%=      5-min Rain = 0
KDC1 191808Z 11003KT 16/01 A3002 RMK A01 T01570009  RH  037%=      5-min Rain = 0
KDC1 191809Z 11004KT 16/01 A3002 RMK A01 T01580010  RH  037%=      5-min Rain = 0
KDC1 191810Z 09004KT 16/01 A3002 RMK A01 T01570011  RH  037%=      5-min Rain = 0
KDC1 191811Z 11003KT 16/01 A3002 RMK A01 T01560012  RH  038%=      5-min Rain = 0
KDC1 191812Z 14003KT 16/01 A3002 RMK A01 T01560013  RH  038%=      5-min Rain = 0
KDC1 191813Z 12003KT 16/01 A3002 RMK A01 T01570013  RH  038%=      5-min Rain = 0
KDC1 191814Z 12003KT 16/01 A3002 RMK A01 T01580013  RH  038%=      5-min Rain = 0
KDC1 191815Z 12003KT 16/02 A3002 RMK A01 T01570015  RH  038%=      5-min Rain = 0
KDC1 191816Z 14004KT 16/01 A3002 RMK A01 T01570013  RH  038%=      5-min Rain = 0
KDC1 191817Z 14004KT 16/01 A3002 RMK A01 T01570010  RH  037%=      5-min Rain = 0
KDC1 191818Z 13003KT 16/01 A3002 RMK A01 T01570009  RH  036%=      5-min Rain = 0
KDC1 191819Z 13003KT 16/01 A3001 RMK A01 T01590009  RH  036%=      5-min Rain = 0
KDC1 191820Z 13003KT 16/01 A3001 RMK A01 T01590012  RH  037%=      5-min Rain = 0
KDC1 191821Z 15004KT 16/02 A3001 RMK A01 T01610016  RH  038%=      5-min Rain = 0
KDC1 191822Z 15004KT 16/02 A3001 RMK A01 T01620015  RH  037%=      5-min Rain = 0
KDC1 191823Z 15003KT 16/01 A3001 RMK A01 T01620014  RH  037%=      5-min Rain = 0
KDC1 191824Z 17003KT 16/02 A3001 RMK A01 T01630017  RH  037%=      5-min Rain = 0
KDC1 191825Z 15003KT 17/02 A3001 RMK A01 T01660017  RH  037%=      5-min Rain = 0
KDC1 191826Z 15003KT 17/01 A3001 RMK A01 T01670012  RH  035%=      5-min Rain = 0
KDC1 191827Z 16002KT 17/01 A3001 RMK A01 T01660011  RH  035%=      5-min Rain = 0
KDC1 191828Z 15002KT 17/01 A3001 RMK A01 T01660008  RH  034%=      5-min Rain = 0
KDC1 191829Z 11002KT 17/01 A30 RMK A01 T01660010  RH  035%=      5-min Rain = 0
KDC1 191830Z 14003KT 17/01 A30 RMK A01 T01650009  RH  035%=      5-min Rain = 0
KDC1 191831Z 12003KT 16/01 A30 RMK A01 T01640008  RH  035%=      5-min Rain = 0
KDC1 191832Z 10003KT 17/01 A30 RMK A01 T01650009  RH  035%=      5-min Rain = 0
KDC1 191833Z 11004KT 17/01 A30 RMK A01 T01660010  RH  035%=      5-min Rain = 0
KDC1 191834Z 12003KT 17/01 A30 RMK A01 T01650011  RH  035%=      5-min Rain = 0
KDC1 191835Z 13003KT 17/01 A30 RMK A01 T01660011  RH  035%=      5-min Rain = 0
KDC1 191836Z 11003KT 17/01 A30 RMK A01 T01660010  RH  035%=      5-min Rain = 0
KDC1 191837Z 12003KT 17/01 A30 RMK A01 T01650007  RH  034%=      5-min Rain = 0
KDC1 191838Z 11003KT 16/00 A30 RMK A01 T01640004  RH  034%=      5-min Rain = 0
KDC1 191839Z 11003KT 16/00 A30 RMK A01 T01630002  RH  033%=      5-min Rain = 0
KDC1 191840Z 12003KT 16/01 A30 RMK A01 T01630005  RH  034%=      5-min Rain = 0
KDC1 191841Z 12003KT 16/00 A2999 RMK A01 T01620004  RH  034%=      5-min Rain = 0
KDC1 191842Z 12002KT 16/00 A2999 RMK A01 T01610004  RH  034%=      5-min Rain = 0
KDC1 191843Z 11002KT 16/01 A2999 RMK A01 T01610005  RH  035%=      5-min Rain = 0
KDC1 191844Z 08002KT 16/01 A2999 RMK A01 T01600009  RH  036%=      5-min Rain = 0
KDC1 191845Z 09003KT 16/01 A2999 RMK A01 T01600008  RH  035%=      5-min Rain = 0
KDC1 191846Z 10003KT 16/01 A2999 RMK A01 T01600009  RH  036%=      5-min Rain = 0
KDC1 191847Z 10003KT 16/01 A2999 RMK A01 T01600007  RH  035%=      5-min Rain = 0
KDC1 191848Z 09002KT 16/01 A2999 RMK A01 T01600005  RH  035%=      5-min Rain = 0
KDC1 191849Z 09003KT 16/01 A2999 RMK A01 T01600006  RH  035%=      5-min Rain = 0
KDC1 191850Z 10003KT 16/01 A2999 RMK A01 T01600007  RH  035%=      5-min Rain = 0
KDC1 191851Z 11003KT 16/01 A2999 RMK A01 T01600009  RH  036%=      5-min Rain = 0
KDC1 191852Z 12002KT 16/01 A2999 RMK A01 T01600009  RH  036%=      5-min Rain = 0
KDC1 191853Z 09001KT 16/01 A2999 RMK A01 T01600012  RH  037%=      5-min Rain = 0
KDC1 191854Z 10002KT 16/01 A2999 RMK A01 T01610011  RH  036%=      5-min Rain = 0
KDC1 191855Z 09002KT 16/01 A2999 RMK A01 T01620010  RH  036%=      5-min Rain = 0
KDC1 191856Z 09002KT 16/01 A2999 RMK A01 T01620009  RH  035%=      5-min Rain = 0
KDC1 191857Z 07003KT 16/01 A2998 RMK A01 T01630012  RH  036%=      5-min Rain = 0
KDC1 191858Z 07003KT 17/01 A2998 RMK A01 T01650009  RH  035%=      5-min Rain = 0
KDC1 191859Z 06002KT 17/01 A2998 RMK A01 T01650008  RH  035%=      5-min Rain = 0
KDC1 191900Z 06003KT 17/01 A2998 RMK A01 T01650007  RH  034%=      5-min Rain = 0
KDC1 191901Z 09002KT 17/01 A2998 RMK A01 T01650007  RH  034%=      5-min Rain = 0
KDC1 191902Z 09002KT 17/00 A2998 RMK A01 T01660003  RH  033%=      5-min Rain = 0
KDC1 191903Z 10001KT 17/00 A2998 RMK A01 T01680004  RH  033%=      5-min Rain = 0
KDC1 191904Z 10000KT 17/00 A2998 RMK A01 T01700003  RH  032%=      5-min Rain = 0
KDC1 191905Z 14001KT 17/01 A2998 RMK A01 T01740006  RH  032%=      5-min Rain = 0
KDC1 191906Z 13003KT 18/01 A2998 RMK A01 T01780014  RH  033%=      5-min Rain = 0
KDC1 191907Z 13002KT 18/01 A2998 RMK A01 T01790010  RH  032%=      5-min Rain = 0
KDC1 191908Z 11002KT 18/01 A2997 RMK A01 T01790010  RH  032%=      5-min Rain = 0
KDC1 191909Z 11003KT 18/01 A2997 RMK A01 T01790010  RH  032%=      5-min Rain = 0
KDC1 191910Z 10003KT 18/01 A2997 RMK A01 T01760007  RH  032%=      5-min Rain = 0
KDC1 191911Z 10003KT 17/00 A2997 RMK A01 T01740004  RH  032%=      5-min Rain = 0
KDC1 191912Z 11003KT 17/00 A2997 RMK A01 T01720003  RH  032%=      5-min Rain = 0
KDC1 191913Z 10004KT 17/00 A2997 RMK A01 T01710004  RH  032%=      5-min Rain = 0
KDC1 191914Z 10002KT 17/00 A2997 RMK A01 T01710003  RH  032%=      5-min Rain = 0
KDC1 191915Z 12002KT 17/00 A2997 RMK A01 T01710003  RH  032%=      5-min Rain = 0
KDC1 191916Z 13001KT 17/00 A2997 RMK A01 T01710003  RH  032%=      5-min Rain = 0
KDC1 191917Z 15001KT 17/00 A2997 RMK A01 T01710004  RH  032%=      5-min Rain = 0
KDC1 191918Z 15001KT 17/01 A2997 RMK A01 T01730005  RH  032%=      5-min Rain = 0
KDC1 191919Z 15001KT 18/01 A2997 RMK A01 T01750007  RH  032%=      5-min Rain = 0
KDC1 191920Z 14002KT 18/01 A2997 RMK A01 T01770008  RH  032%=      5-min Rain = 0
KDC1 191921Z 14002KT 18/01 A2997 RMK A01 T01780010  RH  032%=      5-min Rain = 0
KDC1 191922Z 11002KT 18/01 A2996 RMK A01 T01790011  RH  032%=      5-min Rain = 0
KDC1 191923Z 07002KT 18/02 A2996 RMK A01 T01810016  RH  033%=      5-min Rain = 0
KDC1 191924Z 09003KT 18/01 A2996 RMK A01 T01810011  RH  032%=      5-min Rain = 0
KDC1 191925Z 06003KT 18/01 A2996 RMK A01 T01800008  RH  031%=      5-min Rain = 0
KDC1 191926Z 06002KT 18/01 A2996 RMK A01 T01790013  RH  033%=      5-min Rain = 0
KDC1 191927Z 07001KT 18/01 A2996 RMK A01 T01790013  RH  033%=      5-min Rain = 0
KDC1 191928Z 07003KT 18/01 A2996 RMK A01 T01800013  RH  033%=      5-min Rain = 0
KDC1 191929Z 08003KT 18/02 A2996 RMK A01 T01810016  RH  033%=      5-min Rain = 0
KDC1 191930Z 07003KT 18/02 A2996 RMK A01 T01810018  RH  034%=      5-min Rain = 0
KDC1 191931Z 05003KT 18/02 A2996 RMK A01 T01830015  RH  032%=      5-min Rain = 0
KDC1 191932Z 08002KT 18/01 A2996 RMK A01 T01840012  RH  032%=      5-min Rain = 0
KDC1 191933Z 08002KT 18/01 A2996 RMK A01 T01840013  RH  032%=      5-min Rain = 0
KDC1 191934Z 07001KT 18/01 A2996 RMK A01 T01840011  RH  031%=      5-min Rain = 0
KDC1 191935Z 00000KT 18/01 A2995 RMK A01 T01840011  RH  031%=      5-min Rain = 0
KDC1 191936Z 09000KT 19/01 A2995 RMK A01 T01870014  RH  031%=      5-min Rain = 0
KDC1 191937Z 05001KT 19/02 A2995 RMK A01 T01900016  RH  031%=      5-min Rain = 0
KDC1 191938Z 06002KT 19/02 A2995 RMK A01 T01920016  RH  031%=      5-min Rain = 0
KDC1 191939Z 09003KT 19/01 A2995 RMK A01 T01920010  RH  030%=      5-min Rain = 0
KDC1 191940Z 11004KT 19/01 A2995 RMK A01 T01910008  RH  029%=      5-min Rain = 0
KDC1 191941Z 13002KT 19/01 A2995 RMK A01 T01890006  RH  029%=      5-min Rain = 0
KDC1 191942Z 13002KT 19/01 A2995 RMK A01 T01880008  RH  030%=      5-min Rain = 0
KDC1 191943Z 12003KT 19/01 A2995 RMK A01 T01880009  RH  030%=      5-min Rain = 0
KDC1 191944Z 11004KT 19/01 A2995 RMK A01 T01880012  RH  031%=      5-min Rain = 0
KDC1 191945Z 11004KT 19/01 A2994 RMK A01 T01890013  RH  031%=      5-min Rain = 0
KDC1 191946Z 11004KT 19/01 A2994 RMK A01 T01900011  RH  030%=      5-min Rain = 0
KDC1 191947Z 07004KT 19/01 A2994 RMK A01 T01900007  RH  029%=      5-min Rain = 0
KDC1 191948Z 08004KT 19/01 A2994 RMK A01 T01900008  RH  030%=      5-min Rain = 0
KDC1 191949Z 11003KT 19/01 A2994 RMK A01 T01910008  RH  029%=      5-min Rain = 0
KDC1 191950Z 08003KT 19/01 A2994 RMK A01 T01920006  RH  029%=      5-min Rain = 0
KDC1 191951Z 09005KT 19/01 A2994 RMK A01 T01940007  RH  029%=      5-min Rain = 0
KDC1 191952Z 08004KT 19/00 A2994 RMK A01 T01940003  RH  028%=      5-min Rain = 0
KDC1 191953Z 10003KT 19/00 A2993 RMK A01 T01930001  RH  028%=      5-min Rain = 0
KDC1 191954Z 08003KT 19/00 A2993 RMK A01 T01940003  RH  028%=      5-min Rain = 0
KDC1 191955Z 07004KT 20/00 A2993 RMK A01 T01960000  RH  027%=      5-min Rain = 0
KDC1 191956Z 07003KT 20/00 A2993 RMK A01 T01950000  RH  027%=      5-min Rain = 0
KDC1 191957Z 07003KT 19/00 A2993 RMK A01 T01940003  RH  028%=      5-min Rain = 0
KDC1 191958Z 09005KT 19/00 A2993 RMK A01 T01940003  RH  028%=      5-min Rain = 0
KDC1 191959Z 10004KT 19/00 A2993 RMK A01 T01940002  RH  028%=      5-min Rain = 0
KDC1 192000Z 07005KT 19/00 A2992 RMK A01 T01930002  RH  028%=      5-min Rain = 0
KDC1 192001Z 10004KT 19/00 A2992 RMK A01 T01930002  RH  028%=      5-min Rain = 0
KDC1 192002Z 09005KT 19/00 A2992 RMK A01 T01930002  RH  028%=      5-min Rain = 0
KDC1 192003Z 09005KT 20/00 A2992 RMK A01 T01950002  RH  027%=      5-min Rain = 0
KDC1 192004Z 08004KT 20/00 A2992 RMK A01 T01960001  RH  027%=      5-min Rain = 0
KDC1 192005Z 08003KT 20/00 A2992 RMK A01 T01970002  RH  027%=      5-min Rain = 0
KDC1 192006Z 09005KT 20/00 A2992 RMK A01 T01990004  RH  027%=      5-min Rain = 0
KDC1 192007Z 09003KT 20/00 A2992 RMK A01 T02000001  RH  026%=      5-min Rain = 0
KDC1 192008Z 07004KT 20/00 A2992 RMK A01 T02010001  RH  026%=      5-min Rain = 0
KDC1 192009Z 07004KT 20/00 A2992 RMK A01 T02020003  RH  027%=      5-min Rain = 0
KDC1 192010Z 07004KT 20/00 A2992 RMK A01 T02030002  RH  026%=      5-min Rain = 0
KDC1 192011Z 08005KT 20/01 A2992 RMK A01 T02030005  RH  027%=      5-min Rain = 0
KDC1 192012Z 07004KT 21/01 A2992 RMK A01 T02050005  RH  026%=      5-min Rain = 0
KDC1 192013Z 06004KT 21/00 A2992 RMK A01 T02060004  RH  026%=      5-min Rain = 0
KDC1 192014Z 06003KT 21/00 A2992 RMK A01 T02050001  RH  026%=      5-min Rain = 0
KDC1 192015Z 08002KT 20/00 A2992 RMK A01 T02040001  RH  026%=      5-min Rain = 0
KDC1 192016Z 09002KT 20/00 A2991 RMK A01 T02040002  RH  026%=      5-min Rain = 0
KDC1 192017Z 07003KT 21/00 A2991 RMK A01 T02050004  RH  026%=      5-min Rain = 0
KDC1 192018Z 10002KT 21/01 A2991 RMK A01 T02060006  RH  026%=      5-min Rain = 0
KDC1 192019Z 12003KT 21/01 A2991 RMK A01 T02080009  RH  027%=      5-min Rain = 0
KDC1 192020Z 09003KT 21/01 A2991 RMK A01 T02090012  RH  027%=      5-min Rain = 0
KDC1 192021Z 09003KT 21/01 A2991 RMK A01 T02100007  RH  026%=      5-min Rain = 0
KDC1 192022Z 07002KT 21/01 A2991 RMK A01 T02100008  RH  026%=      5-min Rain = 0
KDC1 192023Z 07004KT 21/01 A2991 RMK A01 T02100011  RH  027%=      5-min Rain = 0
KDC1 192024Z 07004KT 21/01 A2991 RMK A01 T02110009  RH  026%=      5-min Rain = 0
KDC1 192025Z 08004KT 21/01 A2991 RMK A01 T02110009  RH  026%=      5-min Rain = 0
KDC1 192026Z 09001KT 21/01 A2991 RMK A01 T02100009  RH  026%=      5-min Rain = 0
KDC1 192027Z 07004KT 21/01 A2991 RMK A01 T02090010  RH  027%=      5-min Rain = 0
KDC1 192028Z 08003KT 21/01 A2991 RMK A01 T02080009  RH  027%=      5-min Rain = 0
KDC1 192029Z 08003KT 21/01 A2991 RMK A01 T02080009  RH  027%=      5-min Rain = 0
KDC1 192030Z 10002KT 21/01 A2991 RMK A01 T02080008  RH  026%=      5-min Rain = 0
KDC1 192031Z 10002KT 21/01 A299 RMK A01 T02080009  RH  027%=      5-min Rain = 0
KDC1 192032Z 10002KT 21/01 A299 RMK A01 T02090011  RH  027%=      5-min Rain = 0
KDC1 192033Z 06003KT 21/01 A299 RMK A01 T02090010  RH  027%=      5-min Rain = 0
KDC1 192034Z 04002KT 21/01 A299 RMK A01 T02090011  RH  027%=      5-min Rain = 0
KDC1 192035Z 06002KT 21/01 A299 RMK A01 T02080012  RH  027%=      5-min Rain = 0
KDC1 192036Z 08004KT 21/01 A299 RMK A01 T02080012  RH  027%=      5-min Rain = 0
KDC1 192037Z 08004KT 21/01 A299 RMK A01 T02090010  RH  027%=      5-min Rain = 0
KDC1 192038Z 08003KT 21/01 A299 RMK A01 T02090011  RH  027%=      5-min Rain = 0
KDC1 192039Z 08002KT 21/01 A299 RMK A01 T02090010  RH  026%=      5-min Rain = 0
KDC1 192040Z 11001KT 21/01 A299 RMK A01 T02100012  RH  027%=      5-min Rain = 0
KDC1 192041Z 06001KT 21/01 A299 RMK A01 T02100010  RH  026%=      5-min Rain = 0
KDC1 192042Z 07001KT 21/01 A299 RMK A01 T02100013  RH  027%=      5-min Rain = 0
KDC1 192043Z 11002KT 21/01 A299 RMK A01 T02110010  RH  026%=      5-min Rain = 0
KDC1 192044Z 12001KT 21/01 A299 RMK A01 T02110008  RH  026%=      5-min Rain = 0
KDC1 192045Z 08001KT 21/01 A299 RMK A01 T02110010  RH  026%=      5-min Rain = 0
KDC1 192046Z 08001KT 21/01 A299 RMK A01 T02110007  RH  026%=      5-min Rain = 0
KDC1 192047Z 06001KT 21/01 A299 RMK A01 T02110005  RH  025%=      5-min Rain = 0
KDC1 192048Z 06001KT 21/01 A299 RMK A01 T02110007  RH  026%=      5-min Rain = 0
KDC1 192049Z 08000KT 21/01 A299 RMK A01 T02110009  RH  026%=      5-min Rain = 0
KDC1 192050Z 06002KT 21/01 A299 RMK A01 T02110008  RH  026%=      5-min Rain = 0
KDC1 192051Z 06001KT 21/01 A299 RMK A01 T02120009  RH  026%=      5-min Rain = 0
KDC1 192052Z 07002KT 21/01 A299 RMK A01 T02120009  RH  026%=      5-min Rain = 0
KDC1 192053Z 07003KT 21/01 A2989 RMK A01 T02120011  RH  026%=      5-min Rain = 0
KDC1 192054Z 07003KT 21/01 A2989 RMK A01 T02130013  RH  027%=      5-min Rain = 0
KDC1 192055Z 07003KT 21/01 A2989 RMK A01 T02130014  RH  027%=      5-min Rain = 0
KDC1 192056Z 06003KT 21/01 A2989 RMK A01 T02120014  RH  027%=      5-min Rain = 0
KDC1 192057Z 05004KT 21/01 A2989 RMK A01 T02130014  RH  027%=      5-min Rain = 0
KDC1 192058Z 06003KT 21/01 A2989 RMK A01 T02120009  RH  026%=      5-min Rain = 0
KDC1 192059Z 06002KT 21/01 A2989 RMK A01 T02110009  RH  026%=      5-min Rain = 0
KDC1 192100Z 05002KT 21/01 A2989 RMK A01 T02110009  RH  026%=      5-min Rain = 0
KDC1 192101Z 07002KT 21/01 A2989 RMK A01 T02110010  RH  026%=      5-min Rain = 0
KDC1 192102Z 08003KT 21/01 A2989 RMK A01 T02110009  RH  026%=      5-min Rain = 0
KDC1 192103Z 08004KT 21/01 A2989 RMK A01 T02120009  RH  026%=      5-min Rain = 0
KDC1 192104Z 07004KT 21/01 A2989 RMK A01 T02120009  RH  026%=      5-min Rain = 0
KDC1 192105Z 07004KT 21/01 A2989 RMK A01 T02120009  RH  026%=      5-min Rain = 0
KDC1 192106Z 06004KT 21/01 A2989 RMK A01 T02120009  RH  026%=      5-min Rain = 0
KDC1 192107Z 06003KT 21/01 A2989 RMK A01 T02120007  RH  025%=      5-min Rain = 0
KDC1 192108Z 07003KT 21/01 A2989 RMK A01 T02130008  RH  026%=      5-min Rain = 0
KDC1 192109Z 08002KT 21/01 A2989 RMK A01 T02130009  RH  026%=      5-min Rain = 0
KDC1 192110Z 09003KT 21/01 A2989 RMK A01 T02120010  RH  026%=      5-min Rain = 0
KDC1 192111Z 08003KT 21/01 A2989 RMK A01 T02130010  RH  026%=      5-min Rain = 0
KDC1 192112Z 08004KT 21/01 A2989 RMK A01 T02130011  RH  026%=      5-min Rain = 0
KDC1 192113Z 07003KT 21/01 A2989 RMK A01 T02130010  RH  026%=      5-min Rain = 0
KDC1 192114Z 07002KT 21/01 A2989 RMK A01 T02130012  RH  026%=      5-min Rain = 0
KDC1 192115Z 08003KT 21/01 A2989 RMK A01 T02130010  RH  026%=      5-min Rain = 0
KDC1 192116Z 07003KT 21/01 A2989 RMK A01 T02140008  RH  026%=      5-min Rain = 0
KDC1 192117Z 07002KT 22/01 A2988 RMK A01 T02150008  RH  025%=      5-min Rain = 0
KDC1 192118Z 08002KT 22/01 A2988 RMK A01 T02160006  RH  025%=      5-min Rain = 0
KDC1 192119Z 09002KT 22/01 A2988 RMK A01 T02170007  RH  025%=      5-min Rain = 0
KDC1 192120Z 09003KT 22/00 A2988 RMK A01 T02180004  RH  024%=      5-min Rain = 0
KDC1 192121Z 09003KT 22/01 A2988 RMK A01 T02190005  RH  024%=      5-min Rain = 0
KDC1 192122Z 09002KT 22/00 A2988 RMK A01 T02190003  RH  024%=      5-min Rain = 0
KDC1 192123Z 09002KT 22/01 A2988 RMK A01 T02190006  RH  024%=      5-min Rain = 0
KDC1 192124Z 09003KT 22/01 A2988 RMK A01 T02190005  RH  024%=      5-min Rain = 0
KDC1 192125Z 09003KT 22/01 A2988 RMK A01 T02190005  RH  024%=      5-min Rain = 0
KDC1 192126Z 10002KT 22/01 A2988 RMK A01 T02180005  RH  024%=      5-min Rain = 0
KDC1 192127Z 12002KT 22/01 A2988 RMK A01 T02180005  RH  024%=      5-min Rain = 0
KDC1 192128Z 09002KT 22/00 A2988 RMK A01 T02170004  RH  024%=      5-min Rain = 0
KDC1 192129Z 10001KT 22/01 A2988 RMK A01 T02170008  RH  025%=      5-min Rain = 0
KDC1 192130Z 07002KT 22/01 A2988 RMK A01 T02170010  RH  025%=      5-min Rain = 0
KDC1 192131Z 06001KT 22/01 A2988 RMK A01 T02170010  RH  025%=      5-min Rain = 0
KDC1 192132Z 06001KT 22/01 A2988 RMK A01 T02170010  RH  025%=      5-min Rain = 0
KDC1 192133Z 07001KT 22/01 A2988 RMK A01 T02180009  RH  025%=      5-min Rain = 0
KDC1 192134Z 07001KT 22/01 A2989 RMK A01 T02170007  RH  025%=      5-min Rain = 0
KDC1 192135Z 04000KT 22/01 A2989 RMK A01 T02180008  RH  025%=      5-min Rain = 0
KDC1 192136Z 09001KT 22/01 A2989 RMK A01 T02170008  RH  025%=      5-min Rain = 0
KDC1 192137Z 09001KT 22/01 A2988 RMK A01 T02170009  RH  025%=      5-min Rain = 0
KDC1 192138Z 07001KT 22/01 A2988 RMK A01 T02180009  RH  025%=      5-min Rain = 0
KDC1 192139Z 07003KT 22/01 A2988 RMK A01 T02180007  RH  025%=      5-min Rain = 0
KDC1 192140Z 08002KT 22/01 A2988 RMK A01 T02180005  RH  024%=      5-min Rain = 0
KDC1 192141Z 08003KT 22/01 A2988 RMK A01 T02170005  RH  024%=      5-min Rain = 0
KDC1 192142Z 09002KT 22/01 A2988 RMK A01 T02180005  RH  024%=      5-min Rain = 0
KDC1 192143Z 08001KT 22/01 A2988 RMK A01 T02180006  RH  025%=      5-min Rain = 0
KDC1 192144Z 00000KT 22/01 A2988 RMK A01 T02180006  RH  025%=      5-min Rain = 0
KDC1 192145Z 00000KT 22/01 A2988 RMK A01 T02180005  RH  024%=      5-min Rain = 0
KDC1 192146Z 05000KT 22/01 A2988 RMK A01 T02190005  RH  024%=      5-min Rain = 0
KDC1 192147Z 00000KT 22/01 A2988 RMK A01 T02200008  RH  025%=      5-min Rain = 0
KDC1 192148Z 06001KT 22/01 A2988 RMK A01 T02220011  RH  025%=      5-min Rain = 0
KDC1 192149Z 08001KT 22/01 A2989 RMK A01 T02230011  RH  025%=      5-min Rain = 0
KDC1 192150Z 09001KT 22/01 A2989 RMK A01 T02230008  RH  024%=      5-min Rain = 0
KDC1 192151Z 07001KT 22/01 A2989 RMK A01 T02230007  RH  024%=      5-min Rain = 0
KDC1 192152Z 11001KT 22/01 A2989 RMK A01 T02220007  RH  024%=      5-min Rain = 0
KDC1 192153Z 15001KT 22/01 A2989 RMK A01 T02220008  RH  024%=      5-min Rain = 0
KDC1 192154Z 15001KT 22/01 A2989 RMK A01 T02220007  RH  024%=      5-min Rain = 0
KDC1 192155Z 14001KT 22/01 A2989 RMK A01 T02230008  RH  024%=      5-min Rain = 0
KDC1 192156Z 12001KT 23/01 A2989 RMK A01 T02250011  RH  024%=      5-min Rain = 0
KDC1 192157Z 10000KT 23/01 A2989 RMK A01 T02250008  RH  024%=      5-min Rain = 0
KDC1 192158Z 11000KT 23/01 A2989 RMK A01 T02260011  RH  024%=      5-min Rain = 0
KDC1 192159Z 12000KT 23/01 A2988 RMK A01 T02260010  RH  024%=      5-min Rain = 0
KDC1 192200Z 07000KT 23/01 A2988 RMK A01 T02260013  RH  024%=      5-min Rain = 0
KDC1 192201Z 07000KT 23/01 A2988 RMK A01 T02260014  RH  025%=      5-min Rain = 0
KDC1 192202Z 07001KT 23/01 A2988 RMK A01 T02260014  RH  025%=      5-min Rain = 0
KDC1 192203Z 11001KT 23/01 A2988 RMK A01 T02250012  RH  024%=      5-min Rain = 0
KDC1 192204Z 12001KT 23/02 A2988 RMK A01 T02250016  RH  025%=      5-min Rain = 0
KDC1 192205Z 12002KT 22/01 A2988 RMK A01 T02240014  RH  025%=      5-min Rain = 0
KDC1 192206Z 11001KT 22/01 A2988 RMK A01 T02230010  RH  024%=      5-min Rain = 0
KDC1 192207Z 12001KT 22/02 A2988 RMK A01 T02230015  RH  025%=      5-min Rain = 0
KDC1 192208Z 12002KT 22/02 A2988 RMK A01 T02230018  RH  026%=      5-min Rain = 0
KDC1 192209Z 11002KT 22/03 A2988 RMK A01 T02220026  RH  028%=      5-min Rain = 0
KDC1 192210Z 12002KT 22/03 A2988 RMK A01 T02210025  RH  027%=      5-min Rain = 0
KDC1 192211Z 12003KT 22/02 A2988 RMK A01 T02200024  RH  027%=      5-min Rain = 0
KDC1 192212Z 12002KT 22/03 A2988 RMK A01 T02200029  RH  028%=      5-min Rain = 0
KDC1 192213Z 12002KT 22/03 A2988 RMK A01 T02200029  RH  029%=      5-min Rain = 0
KDC1 192214Z 12002KT 22/03 A2988 RMK A01 T02200027  RH  028%=      5-min Rain = 0
KDC1 192215Z 13002KT 22/02 A2988 RMK A01 T02190024  RH  028%=      5-min Rain = 0
KDC1 192216Z 13001KT 22/03 A2988 RMK A01 T02190025  RH  028%=      5-min Rain = 0
KDC1 192217Z 14001KT 22/03 A2988 RMK A01 T02190029  RH  029%=      5-min Rain = 0
KDC1 192218Z 13001KT 22/02 A2988 RMK A01 T02190022  RH  027%=      5-min Rain = 0
KDC1 192219Z 14001KT 22/02 A2988 RMK A01 T02190024  RH  028%=      5-min Rain = 0
KDC1 192220Z 15001KT 22/04 A2988 RMK A01 T02190037  RH  030%=      5-min Rain = 0
KDC1 192221Z 18001KT 22/04 A2988 RMK A01 T02190044  RH  032%=      5-min Rain = 0
KDC1 192222Z 19001KT 22/04 A2988 RMK A01 T02190036  RH  030%=      5-min Rain = 0
KDC1 192223Z 18001KT 22/04 A2988 RMK A01 T02190044  RH  032%=      5-min Rain = 0
KDC1 192224Z 17002KT 22/04 A2987 RMK A01 T02190035  RH  030%=      5-min Rain = 0
KDC1 192225Z 17002KT 22/04 A2987 RMK A01 T02190044  RH  032%=      5-min Rain = 0
KDC1 192226Z 18001KT 22/05 A2987 RMK A01 T02180047  RH  033%=      5-min Rain = 0
KDC1 192227Z 19001KT 22/04 A2988 RMK A01 T02170044  RH  032%=      5-min Rain = 0
KDC1 192228Z 19002KT 22/03 A2988 RMK A01 T02170031  RH  029%=      5-min Rain = 0
KDC1 192229Z 17002KT 22/02 A2988 RMK A01 T02170023  RH  028%=      5-min Rain = 0
KDC1 192230Z 18001KT 22/02 A2988 RMK A01 T02170018  RH  027%=      5-min Rain = 0
KDC1 192231Z 19001KT 22/02 A2988 RMK A01 T02170017  RH  027%=      5-min Rain = 0
KDC1 192232Z 22001KT 22/02 A2988 RMK A01 T02180018  RH  027%=      5-min Rain = 0
KDC1 192233Z 25001KT 22/02 A2988 RMK A01 T02190020  RH  027%=      5-min Rain = 0
KDC1 192234Z 26002KT 22/02 A2988 RMK A01 T02190020  RH  027%=      5-min Rain = 0
KDC1 192235Z 27002KT 22/04 A2988 RMK A01 T02190038  RH  031%=      5-min Rain = 0
KDC1 192236Z 26001KT 22/04 A2988 RMK A01 T02170036  RH  030%=      5-min Rain = 0
KDC1 192237Z 25001KT 22/03 A2988 RMK A01 T02160034  RH  030%=      5-min Rain = 0
KDC1 192238Z 24002KT 22/04 A2988 RMK A01 T02150036  RH  031%=      5-min Rain = 0
KDC1 192239Z 24002KT 21/04 A2988 RMK A01 T02140035  RH  031%=      5-min Rain = 0
KDC1 192240Z 24002KT 21/04 A2988 RMK A01 T02140036  RH  031%=      5-min Rain = 0
KDC1 192241Z 23002KT 21/04 A2988 RMK A01 T02140040  RH  032%=      5-min Rain = 0
KDC1 192242Z 22001KT 21/03 A2989 RMK A01 T02140034  RH  031%=      5-min Rain = 0
KDC1 192243Z 21001KT 21/03 A2989 RMK A01 T02140033  RH  030%=      5-min Rain = 0
KDC1 192244Z 22001KT 21/03 A2989 RMK A01 T02140031  RH  030%=      5-min Rain = 0
KDC1 192245Z 23001KT 21/03 A2989 RMK A01 T02140033  RH  030%=      5-min Rain = 0
KDC1 192246Z 24001KT 21/04 A2989 RMK A01 T02140035  RH  031%=      5-min Rain = 0
KDC1 192247Z 27001KT 21/04 A2988 RMK A01 T02140036  RH  031%=      5-min Rain = 0
KDC1 192248Z 27001KT 21/04 A2989 RMK A01 T02140036  RH  031%=      5-min Rain = 0
KDC1 192249Z 28002KT 21/04 A2989 RMK A01 T02130038  RH  031%=      5-min Rain = 0
KDC1 192250Z 30002KT 21/04 A2988 RMK A01 T02120044  RH  033%=      5-min Rain = 0
KDC1 192251Z 30002KT 21/05 A2989 RMK A01 T02110047  RH  034%=      5-min Rain = 0
KDC1 192252Z 30002KT 21/04 A2988 RMK A01 T02100043  RH  033%=      5-min Rain = 0
KDC1 192253Z 31001KT 21/04 A2988 RMK A01 T02090038  RH  032%=      5-min Rain = 0
KDC1 192254Z 31001KT 21/03 A2988 RMK A01 T02080031  RH  031%=      5-min Rain = 0
KDC1 192255Z 31001KT 21/03 A2988 RMK A01 T02080027  RH  030%=      5-min Rain = 0
KDC1 192256Z 31001KT 21/03 A2988 RMK A01 T02080025  RH  030%=      5-min Rain = 0
KDC1 192257Z 31001KT 21/02 A2988 RMK A01 T02080023  RH  029%=      5-min Rain = 0
KDC1 192258Z 31001KT 21/02 A2988 RMK A01 T02080023  RH  029%=      5-min Rain = 0
KDC1 192259Z 31001KT 21/02 A2988 RMK A01 T02080023  RH  029%=      5-min Rain = 0
KDC1 192300Z 32001KT 21/02 A2988 RMK A01 T02080024  RH  029%=      5-min Rain = 0
KDC1 192301Z 31002KT 21/03 A2988 RMK A01 T02070027  RH  030%=      5-min Rain = 0
KDC1 192302Z 31002KT 21/03 A2988 RMK A01 T02060029  RH  031%=      5-min Rain = 0
KDC1 192303Z 31002KT 21/03 A2988 RMK A01 T02050034  RH  032%=      5-min Rain = 0
KDC1 192304Z 31001KT 21/04 A2988 RMK A01 T02050037  RH  033%=      5-min Rain = 0
KDC1 192305Z 30001KT 20/04 A2988 RMK A01 T02040037  RH  033%=      5-min Rain = 0
KDC1 192306Z 30001KT 20/04 A2988 RMK A01 T02030037  RH  033%=      5-min Rain = 0
KDC1 192307Z 29001KT 20/04 A2988 RMK A01 T02020039  RH  034%=      5-min Rain = 0
KDC1 192308Z 29001KT 20/04 A2988 RMK A01 T02020039  RH  034%=      5-min Rain = 0
KDC1 192309Z 29001KT 20/04 A2988 RMK A01 T02010040  RH  034%=      5-min Rain = 0
KDC1 192310Z 28001KT 20/04 A2988 RMK A01 T02010040  RH  035%=      5-min Rain = 0
KDC1 192311Z 28001KT 20/04 A2988 RMK A01 T02010041  RH  035%=      5-min Rain = 0
KDC1 192312Z 28001KT 20/04 A2988 RMK A01 T02000042  RH  035%=      5-min Rain = 0
KDC1 192313Z 28001KT 20/04 A2988 RMK A01 T02000042  RH  035%=      5-min Rain = 0
KDC1 192314Z 29001KT 20/04 A2988 RMK A01 T01990042  RH  035%=      5-min Rain = 0
KDC1 192315Z 29001KT 20/04 A2988 RMK A01 T01990043  RH  036%=      5-min Rain = 0
KDC1 192316Z 29001KT 20/05 A2988 RMK A01 T01980045  RH  037%=      5-min Rain = 0
KDC1 192317Z 29000KT 20/05 A2988 RMK A01 T01970045  RH  037%=      5-min Rain = 0
KDC1 192318Z 00000KT 20/04 A2988 RMK A01 T01960044  RH  037%=      5-min Rain = 0
KDC1 192319Z 00000KT 20/04 A2988 RMK A01 T01960043  RH  037%=      5-min Rain = 0
KDC1 192320Z 00000KT 20/05 A2988 RMK A01 T01960045  RH  037%=      5-min Rain = 0
KDC1 192321Z 00000KT 20/05 A2988 RMK A01 T01950045  RH  037%=      5-min Rain = 0
KDC1 192322Z 00000KT 19/05 A2988 RMK A01 T01940045  RH  037%=      5-min Rain = 0
KDC1 192323Z 00000KT 19/04 A2988 RMK A01 T01940040  RH  036%=      5-min Rain = 0
KDC1 192324Z 00000KT 19/04 A2988 RMK A01 T01930041  RH  036%=      5-min Rain = 0
KDC1 192325Z 00000KT 19/04 A2988 RMK A01 T01930039  RH  036%=      5-min Rain = 0
KDC1 192326Z 00000KT 19/04 A2988 RMK A01 T01930038  RH  036%=      5-min Rain = 0
KDC1 192327Z 00000KT 19/04 A2988 RMK A01 T01930039  RH  036%=      5-min Rain = 0
KDC1 192328Z 00000KT 19/04 A2988 RMK A01 T01920040  RH  037%=      5-min Rain = 0
KDC1 192329Z 00000KT 19/04 A2988 RMK A01 T01920037  RH  036%=      5-min Rain = 0
KDC1 192330Z 00000KT 19/03 A2988 RMK A01 T01910034  RH  035%=      5-min Rain = 0
KDC1 192331Z 00000KT 19/03 A2988 RMK A01 T01910034  RH  035%=      5-min Rain = 0
KDC1 192332Z 00000KT 19/03 A2988 RMK A01 T01910032  RH  035%=      5-min Rain = 0
KDC1 192333Z 00000KT 19/03 A2988 RMK A01 T01910033  RH  035%=      5-min Rain = 0
KDC1 192334Z 00000KT 19/04 A2988 RMK A01 T01910035  RH  036%=      5-min Rain = 0
KDC1 192335Z 00000KT 19/04 A2988 RMK A01 T01900036  RH  036%=      5-min Rain = 0
KDC1 192336Z 00000KT 19/04 A2988 RMK A01 T01900035  RH  036%=      5-min Rain = 0
KDC1 192337Z 00000KT 19/03 A2988 RMK A01 T01900032  RH  035%=      5-min Rain = 0
KDC1 192338Z 00000KT 19/03 A2988 RMK A01 T01890025  RH  034%=      5-min Rain = 0
KDC1 192339Z 00000KT 19/02 A2988 RMK A01 T01900024  RH  033%=      5-min Rain = 0
KDC1 192340Z 00000KT 19/02 A2988 RMK A01 T01910020  RH  032%=      5-min Rain = 0
KDC1 192341Z 00000KT 19/03 A2988 RMK A01 T01920033  RH  035%=      5-min Rain = 0
KDC1 192342Z 18000KT 19/03 A2988 RMK A01 T01900034  RH  035%=      5-min Rain = 0
KDC1 192343Z 00000KT 19/04 A2988 RMK A01 T01890036  RH  036%=      5-min Rain = 0
KDC1 192344Z 00000KT 19/03 A2988 RMK A01 T01880031  RH  035%=      5-min Rain = 0
KDC1 192345Z 22001KT 19/03 A2988 RMK A01 T01880026  RH  034%=      5-min Rain = 0
KDC1 192346Z 22001KT 19/03 A2988 RMK A01 T01890031  RH  035%=      5-min Rain = 0
KDC1 192347Z 22001KT 19/03 A2988 RMK A01 T01880032  RH  035%=      5-min Rain = 0
KDC1 192348Z 22001KT 19/03 A2988 RMK A01 T01880032  RH  036%=      5-min Rain = 0
KDC1 192349Z 22001KT 19/03 A2988 RMK A01 T01870031  RH  035%=      5-min Rain = 0
KDC1 192350Z 21001KT 19/04 A2988 RMK A01 T01870036  RH  037%=      5-min Rain = 0
KDC1 192351Z 19000KT 19/05 A2988 RMK A01 T01860048  RH  040%=      5-min Rain = 0
KDC1 192352Z 28000KT 18/05 A2988 RMK A01 T01830045  RH  040%=      5-min Rain = 0
KDC1 192353Z 29003KT 18/05 A2988 RMK A01 T01820047  RH  041%=      5-min Rain = 0
KDC1 192354Z 30003KT 18/05 A2988 RMK A01 T01810051  RH  042%=      5-min Rain = 0
KDC1 192355Z 30002KT 18/05 A2988 RMK A01 T01780048  RH  042%=      5-min Rain = 0
KDC1 192356Z 28002KT 17/05 A2988 RMK A01 T01740050  RH  044%=      5-min Rain = 0
KDC1 192357Z 30002KT 17/05 A2988 RMK A01 T01720051  RH  045%=      5-min Rain = 0
KDC1 192358Z 28003KT 17/05 A2988 RMK A01 T01700053  RH  046%=      5-min Rain = 0
KDC1 192359Z 27002KT 17/05 A2988 RMK A01 T01690052  RH  046%=      5-min Rain = 0
KDC1 200000Z 26003KT 17/05 A2988 RMK A01 T01680050  RH  046%=      5-min Rain = 0
KDC1 200001Z 27003KT 17/05 A2988 RMK A01 T01680045  RH  044%=      5-min Rain = 0
KDC1 200002Z 27003KT 17/05 A2988 RMK A01 T01690046  RH  044%=      5-min Rain = 0
KDC1 200003Z 27004KT 17/05 A2988 RMK A01 T01700046  RH  044%=      5-min Rain = 0
KDC1 200004Z 27003KT 17/05 A2987 RMK A01 T01700045  RH  044%=      5-min Rain = 0
KDC1 200005Z 27003KT 17/04 A2987 RMK A01 T01700044  RH  043%=      5-min Rain = 0
KDC1 200006Z 27003KT 17/04 A2987 RMK A01 T01700043  RH  043%=      5-min Rain = 0
KDC1 200007Z 28003KT 17/04 A2987 RMK A01 T01700042  RH  043%=      5-min Rain = 0
KDC1 200008Z 28003KT 17/04 A2987 RMK A01 T01690041  RH  043%=      5-min Rain = 0
KDC1 200009Z 29003KT 17/04 A2987 RMK A01 T01690042  RH  043%=      5-min Rain = 0
KDC1 200010Z 30003KT 17/04 A2987 RMK A01 T01680043  RH  043%=      5-min Rain = 0
KDC1 200011Z 31004KT 17/04 A2987 RMK A01 T01670042  RH  043%=      5-min Rain = 0
KDC1 200012Z 31004KT 17/04 A2987 RMK A01 T01660041  RH  043%=      5-min Rain = 0
KDC1 200013Z 31004KT 17/04 A2987 RMK A01 T01660042  RH  044%=      5-min Rain = 0
KDC1 200014Z 31004KT 17/04 A2987 RMK A01 T01650043  RH  044%=      5-min Rain = 0
KDC1 200015Z 31004KT 16/04 A2987 RMK A01 T01630044  RH  045%=      5-min Rain = 0
KDC1 200016Z 31003KT 16/05 A2987 RMK A01 T01620045  RH  046%=      5-min Rain = 0
KDC1 200017Z 31004KT 16/05 A2987 RMK A01 T01610045  RH  046%=      5-min Rain = 0
KDC1 200018Z 32004KT 16/04 A2987 RMK A01 T01590042  RH  046%=      5-min Rain = 0
KDC1 200019Z 32004KT 16/04 A2987 RMK A01 T01590041  RH  045%=      5-min Rain = 0
KDC1 200020Z 32004KT 16/04 A2987 RMK A01 T01590040  RH  045%=      5-min Rain = 0
KDC1 200021Z 31004KT 16/04 A2987 RMK A01 T01580038  RH  045%=      5-min Rain = 0
KDC1 200022Z 30004KT 16/04 A2987 RMK A01 T01580036  RH  044%=      5-min Rain = 0
KDC1 200023Z 31004KT 16/04 A2987 RMK A01 T01580036  RH  044%=      5-min Rain = 0
KDC1 200024Z 30005KT 16/04 A2987 RMK A01 T01580037  RH  044%=      5-min Rain = 0
KDC1 200025Z 29005KT 16/04 A2987 RMK A01 T01580037  RH  044%=      5-min Rain = 0
KDC1 200026Z 29006KT 16/04 A2987 RMK A01 T01570038  RH  045%=      5-min Rain = 0
KDC1 200027Z 29006KT 16/04 A2988 RMK A01 T01570037  RH  045%=      5-min Rain = 0
KDC1 200028Z 28006KT 16/04 A2987 RMK A01 T01570037  RH  045%=      5-min Rain = 0
KDC1 200029Z 28006KT 16/04 A2988 RMK A01 T01580038  RH  045%=      5-min Rain = 0
KDC1 200030Z 28006KT 16/04 A2988 RMK A01 T01580038  RH  045%=      5-min Rain = 0
KDC1 200031Z 28006KT 16/04 A2988 RMK A01 T01580038  RH  045%=      5-min Rain = 0
KDC1 200032Z 27006KT 16/04 A2988 RMK A01 T01590038  RH  045%=      5-min Rain = 0
KDC1 200033Z 27005KT 16/04 A2988 RMK A01 T01600038  RH  044%=      5-min Rain = 0
KDC1 200034Z 27005KT 16/04 A2988 RMK A01 T01620037  RH  043%=      5-min Rain = 0
KDC1 200035Z 27005KT 17/04 A2988 RMK A01 T01650038  RH  043%=      5-min Rain = 0
KDC1 200036Z 27006KT 17/04 A2988 RMK A01 T01670040  RH  043%=      5-min Rain = 0
KDC1 200037Z 27005KT 17/04 A2988 RMK A01 T01680043  RH  043%=      5-min Rain = 0
KDC1 200038Z 27005KT 17/04 A2988 RMK A01 T01670044  RH  044%=      5-min Rain = 0
KDC1 200039Z 27005KT 17/04 A2988 RMK A01 T01670044  RH  044%=      5-min Rain = 0
KDC1 200040Z 27005KT 17/04 A2988 RMK A01 T01660044  RH  044%=      5-min Rain = 0
KDC1 200041Z 27005KT 16/04 A2988 RMK A01 T01640042  RH  044%=      5-min Rain = 0
KDC1 200042Z 27005KT 16/04 A2988 RMK A01 T01640041  RH  044%=      5-min Rain = 0
KDC1 200043Z 26005KT 16/04 A2988 RMK A01 T01640042  RH  044%=      5-min Rain = 0
KDC1 200044Z 26005KT 16/04 A2988 RMK A01 T01630043  RH  045%=      5-min Rain = 0
KDC1 200045Z 26005KT 16/04 A2988 RMK A01 T01630043  RH  045%=      5-min Rain = 0
KDC1 200046Z 26005KT 16/04 A2988 RMK A01 T01620044  RH  045%=      5-min Rain = 0
KDC1 200047Z 26005KT 16/04 A2988 RMK A01 T01610044  RH  046%=      5-min Rain = 0
KDC1 200048Z 26005KT 16/05 A2988 RMK A01 T01610045  RH  046%=      5-min Rain = 0
KDC1 200049Z 26005KT 16/05 A2988 RMK A01 T01600046  RH  047%=      5-min Rain = 0
KDC1 200050Z 27005KT 16/05 A2988 RMK A01 T01590046  RH  047%=      5-min Rain = 0
KDC1 200051Z 26006KT 16/05 A2988 RMK A01 T01590047  RH  048%=      5-min Rain = 0
KDC1 200052Z 26005KT 16/05 A2988 RMK A01 T01580048  RH  048%=      5-min Rain = 0
KDC1 200053Z 27005KT 16/05 A2988 RMK A01 T01580049  RH  048%=      5-min Rain = 0
KDC1 200054Z 27005KT 16/05 A2988 RMK A01 T01570048  RH  048%=      5-min Rain = 0
KDC1 200055Z 26006KT 16/05 A2988 RMK A01 T01570050  RH  049%=      5-min Rain = 0
KDC1 200056Z 26006KT 16/05 A2988 RMK A01 T01580051  RH  049%=      5-min Rain = 0
KDC1 200057Z 26006KT 16/05 A2988 RMK A01 T01570051  RH  049%=      5-min Rain = 0
KDC1 200058Z 27006KT 16/05 A2988 RMK A01 T01570051  RH  049%=      5-min Rain = 0
KDC1 200059Z 27006KT 16/05 A2989 RMK A01 T01570050  RH  049%=      5-min Rain = 0
KDC1 200100Z 26007KT 16/05 A2989 RMK A01 T01570049  RH  048%=      5-min Rain = 0
KDC1 200101Z 25007KT 16/05 A2989 RMK A01 T01570048  RH  048%=      5-min Rain = 0
KDC1 200102Z 25006KT 16/05 A2989 RMK A01 T01600047  RH  047%=      5-min Rain = 0
KDC1 200103Z 26007KT 16/05 A2989 RMK A01 T01630046  RH  046%=      5-min Rain = 0
KDC1 200104Z 26007KT 16/05 A2989 RMK A01 T01640047  RH  046%=      5-min Rain = 0
KDC1 200105Z 26007KT 16/05 A2989 RMK A01 T01640046  RH  046%=      5-min Rain = 0
KDC1 200106Z 26007KT 16/05 A2989 RMK A01 T01640045  RH  045%=      5-min Rain = 0
KDC1 200107Z 27006KT 16/05 A2989 RMK A01 T01630045  RH  045%=      5-min Rain = 0
KDC1 200108Z 26006KT 16/04 A2989 RMK A01 T01620044  RH  045%=      5-min Rain = 0
KDC1 200109Z 26006KT 16/04 A2989 RMK A01 T01620044  RH  045%=      5-min Rain = 0
KDC1 200110Z 26006KT 16/04 A2989 RMK A01 T01610044  RH  046%=      5-min Rain = 0
KDC1 200111Z 26006KT 16/04 A2989 RMK A01 T01610044  RH  046%=      5-min Rain = 0
KDC1 200112Z 26006KT 16/05 A2989 RMK A01 T01610045  RH  046%=      5-min Rain = 0
KDC1 200113Z 26006KT 16/05 A2989 RMK A01 T01610046  RH  046%=      5-min Rain = 0
KDC1 200114Z 25006KT 16/05 A2989 RMK A01 T01610046  RH  046%=      5-min Rain = 0
KDC1 200115Z 25008KT 16/05 A2989 RMK A01 T01630045  RH  046%=      5-min Rain = 0
KDC1 200116Z 25006KT 17/05 A2989 RMK A01 T01680046  RH  045%=      5-min Rain = 0
KDC1 200117Z 25008KT 17/05 A2989 RMK A01 T01700047  RH  044%=      5-min Rain = 0
KDC1 200118Z 25009KT 17/05 A2989 RMK A01 T01710048  RH  044%=      5-min Rain = 0
KDC1 200119Z 25009KT 17/05 A2989 RMK A01 T01740050  RH  044%=      5-min Rain = 0
KDC1 200120Z 25009KT 18/05 A2989 RMK A01 T01760050  RH  043%=      5-min Rain = 0
KDC1 200121Z 24008KT 18/05 A2989 RMK A01 T01770049  RH  043%=      5-min Rain = 0
KDC1 200122Z 25008KT 18/05 A2989 RMK A01 T01790048  RH  042%=      5-min Rain = 0
KDC1 200123Z 24007KT 18/05 A2989 RMK A01 T01810048  RH  041%=      5-min Rain = 0
KDC1 200124Z 25008KT 18/05 A2989 RMK A01 T01810048  RH  041%=      5-min Rain = 0
KDC1 200125Z 25007KT 18/05 A2989 RMK A01 T01820048  RH  041%=      5-min Rain = 0
KDC1 200126Z 25008KT 18/05 A2989 RMK A01 T01820048  RH  041%=      5-min Rain = 0
KDC1 200127Z 25008KT 18/05 A2989 RMK A01 T01810049  RH  042%=      5-min Rain = 0
KDC1 200128Z 25008KT 18/05 A2989 RMK A01 T01800048  RH  042%=      5-min Rain = 0
KDC1 200129Z 24007KT 18/05 A2989 RMK A01 T01800050  RH  042%=      5-min Rain = 0
KDC1 200130Z 24007KT 18/05 A2989 RMK A01 T01790049  RH  042%=      5-min Rain = 0
KDC1 200131Z 24008KT 18/05 A2989 RMK A01 T01790049  RH  042%=      5-min Rain = 0
KDC1 200132Z 25008KT 18/05 A2989 RMK A01 T01780048  RH  042%=      5-min Rain = 0
KDC1 200133Z 25008KT 18/05 A2989 RMK A01 T01790048  RH  042%=      5-min Rain = 0
KDC1 200134Z 25008KT 18/05 A2989 RMK A01 T01800047  RH  041%=      5-min Rain = 0
KDC1 200135Z 25007KT 18/05 A2989 RMK A01 T01810046  RH  041%=      5-min Rain = 0
KDC1 200136Z 25007KT 18/05 A2989 RMK A01 T01820046  RH  041%=      5-min Rain = 0
KDC1 200137Z 25007KT 18/05 A2989 RMK A01 T01820047  RH  041%=      5-min Rain = 0
KDC1 200138Z 25007KT 18/05 A2989 RMK A01 T01820046  RH  041%=      5-min Rain = 0
KDC1 200139Z 25007KT 18/05 A2989 RMK A01 T01830046  RH  040%=      5-min Rain = 0
KDC1 200140Z 25008KT 18/05 A2989 RMK A01 T01840045  RH  040%=      5-min Rain = 0
KDC1 200141Z 25008KT 19/05 A2989 RMK A01 T01850046  RH  040%=      5-min Rain = 0
KDC1 200142Z 25008KT 19/05 A2989 RMK A01 T01860045  RH  040%=      5-min Rain = 0
KDC1 200143Z 25008KT 19/05 A2989 RMK A01 T01860046  RH  040%=      5-min Rain = 0
KDC1 200144Z 25008KT 19/05 A299 RMK A01 T01850047  RH  040%=      5-min Rain = 0
KDC1 200145Z 25008KT 19/05 A299 RMK A01 T01850046  RH  040%=      5-min Rain = 0
KDC1 200146Z 25008KT 19/05 A299 RMK A01 T01850046  RH  040%=      5-min Rain = 0
KDC1 200147Z 26007KT 19/05 A299 RMK A01 T01850046  RH  040%=      5-min Rain = 0
KDC1 200148Z 26006KT 19/05 A299 RMK A01 T01850047  RH  040%=      5-min Rain = 0
KDC1 200149Z 26007KT 18/05 A299 RMK A01 T01820049  RH  041%=      5-min Rain = 0
KDC1 200150Z 26006KT 18/05 A299 RMK A01 T01790049  RH  042%=      5-min Rain = 0
KDC1 200151Z 26006KT 18/05 A299 RMK A01 T01770049  RH  043%=      5-min Rain = 0
KDC1 200152Z 26006KT 18/05 A299 RMK A01 T01770049  RH  043%=      5-min Rain = 0
KDC1 200153Z 26006KT 18/05 A299 RMK A01 T01760048  RH  043%=      5-min Rain = 0
KDC1 200154Z 26007KT 18/05 A299 RMK A01 T01770047  RH  042%=      5-min Rain = 0
KDC1 200155Z 26007KT 18/05 A299 RMK A01 T01780047  RH  042%=      5-min Rain = 0
KDC1 200156Z 26008KT 18/05 A299 RMK A01 T01790047  RH  042%=      5-min Rain = 0
KDC1 200157Z 26008KT 18/05 A299 RMK A01 T01800047  RH  042%=      5-min Rain = 0
KDC1 200158Z 26009KT 18/05 A299 RMK A01 T01790049  RH  042%=      5-min Rain = 0
KDC1 200159Z 26009KT 18/05 A299 RMK A01 T01770049  RH  043%=      5-min Rain = 0
KDC1 200200Z 26008KT 18/05 A299 RMK A01 T01770048  RH  042%=      5-min Rain = 0
KDC1 200201Z 26009KT 18/05 A299 RMK A01 T01780047  RH  042%=      5-min Rain = 0
KDC1 200202Z 26009KT 18/05 A299 RMK A01 T01790046  RH  041%=      5-min Rain = 0
KDC1 200203Z 26008KT 18/05 A299 RMK A01 T01810046  RH  041%=      5-min Rain = 0
KDC1 200204Z 26009KT 18/05 A299 RMK A01 T01830046  RH  040%=      5-min Rain = 0
KDC1 200205Z 26009KT 18/05 A299 RMK A01 T01840046  RH  040%=      5-min Rain = 0
KDC1 200206Z 26008KT 19/05 A299 RMK A01 T01850046  RH  040%=      5-min Rain = 0
KDC1 200207Z 26008KT 19/05 A299 RMK A01 T01860045  RH  039%=      5-min Rain = 0
KDC1 200208Z 26008KT 19/05 A299 RMK A01 T01870046  RH  039%=      5-min Rain = 0
KDC1 200209Z 26009KT 19/05 A299 RMK A01 T01870045  RH  039%=      5-min Rain = 0
KDC1 200210Z 26008KT 19/05 A299 RMK A01 T01870045  RH  039%=      5-min Rain = 0
KDC1 200211Z 26009KT 19/05 A299 RMK A01 T01880045  RH  039%=      5-min Rain = 0
KDC1 200212Z 26009KT 19/05 A299 RMK A01 T01880046  RH  039%=      5-min Rain = 0
KDC1 200213Z 26008KT 19/05 A299 RMK A01 T01880047  RH  039%=      5-min Rain = 0
KDC1 200214Z 26008KT 19/05 A299 RMK A01 T01870046  RH  039%=      5-min Rain = 0
KDC1 200215Z 26008KT 19/05 A299 RMK A01 T01860046  RH  039%=      5-min Rain = 0
KDC1 200216Z 25008KT 19/05 A299 RMK A01 T01870045  RH  039%=      5-min Rain = 0
KDC1 200217Z 25008KT 19/05 A299 RMK A01 T01870045  RH  039%=      5-min Rain = 0
KDC1 200218Z 26007KT 19/05 A299 RMK A01 T01880046  RH  039%=      5-min Rain = 0
KDC1 200219Z 26007KT 19/05 A299 RMK A01 T01880046  RH  039%=      5-min Rain = 0
KDC1 200220Z 25007KT 19/05 A299 RMK A01 T01870046  RH  039%=      5-min Rain = 0
KDC1 200221Z 25006KT 19/05 A299 RMK A01 T01870047  RH  040%=      5-min Rain = 0
KDC1 200222Z 26006KT 19/05 A299 RMK A01 T01860047  RH  040%=      5-min Rain = 0
KDC1 200223Z 26006KT 19/05 A299 RMK A01 T01850047  RH  040%=      5-min Rain = 0
KDC1 200224Z 26007KT 18/05 A299 RMK A01 T01840048  RH  041%=      5-min Rain = 0
KDC1 200225Z 27007KT 18/05 A299 RMK A01 T01820048  RH  041%=      5-min Rain = 0
KDC1 200226Z 27008KT 18/05 A299 RMK A01 T01800048  RH  042%=      5-min Rain = 0
KDC1 200227Z 26008KT 18/05 A299 RMK A01 T01780047  RH  042%=      5-min Rain = 0
KDC1 200228Z 27009KT 18/05 A299 RMK A01 T01780047  RH  042%=      5-min Rain = 0
KDC1 200229Z 27010KT 18/05 A299 RMK A01 T01780047  RH  042%=      5-min Rain = 0
KDC1 200230Z 28011KT 18/05 A299 RMK A01 T01790046  RH  042%=      5-min Rain = 0
KDC1 200231Z 28012KT 18/05 A299 RMK A01 T01800046  RH  041%=      5-min Rain = 0
KDC1 200232Z 27012KT 18/05 A299 RMK A01 T01810046  RH  041%=      5-min Rain = 0
KDC1 200233Z 27013KT 18/05 A299 RMK A01 T01830045  RH  040%=      5-min Rain = 0
KDC1 200234Z 26013KT 19/04 A299 RMK A01 T01860044  RH  039%=      5-min Rain = 0
KDC1 200235Z 26012KT 19/04 A299 RMK A01 T01880043  RH  038%=      5-min Rain = 0
KDC1 200236Z 26011KT 19/04 A299 RMK A01 T01900043  RH  038%=      5-min Rain = 0
KDC1 200237Z 26011KT 19/04 A299 RMK A01 T01900043  RH  038%=      5-min Rain = 0
KDC1 200238Z 26011KT 19/04 A299 RMK A01 T01910043  RH  038%=      5-min Rain = 0
KDC1 200239Z 26012KT 19/04 A2991 RMK A01 T01920043  RH  038%=      5-min Rain = 0
KDC1 200240Z 26012G17KT 19/04 A2991 RMK A01 T01930044  RH  038%=      5-min Rain = 0
KDC1 200241Z 26016KT 19/05 A299 RMK A01 T01930045  RH  038%=      5-min Rain = 0
KDC1 200242Z 27018KT 20/04 A299 RMK A01 T01950044  RH  037%=      5-min Rain = 0
KDC1 200243Z 27015KT 20/05 A2991 RMK A01 T01970045  RH  037%=      5-min Rain = 0
KDC1 200244Z 27016KT 20/05 A2991 RMK A01 T01970045  RH  037%=      5-min Rain = 0
KDC1 200245Z 27015KT 20/04 A2991 RMK A01 T01980044  RH  036%=      5-min Rain = 0
KDC1 200246Z 27015KT 20/04 A2991 RMK A01 T01980044  RH  036%=      5-min Rain = 0
KDC1 200247Z 27015KT 20/04 A2991 RMK A01 T01980044  RH  036%=      5-min Rain = 0
KDC1 200248Z 28016KT 20/04 A2991 RMK A01 T01970044  RH  036%=      5-min Rain = 0
KDC1 200249Z 27016KT 20/04 A2991 RMK A01 T01970043  RH  036%=      5-min Rain = 0
KDC1 200250Z 28018KT 20/04 A2991 RMK A01 T01970043  RH  036%=      5-min Rain = 0
KDC1 200251Z 28016KT 20/04 A2991 RMK A01 T01970042  RH  036%=      5-min Rain = 0
KDC1 200252Z 28016KT 20/04 A2991 RMK A01 T01970043  RH  036%=      5-min Rain = 0
KDC1 200253Z 28015KT 20/04 A2991 RMK A01 T01960043  RH  036%=      5-min Rain = 0
KDC1 200254Z 27017KT 20/04 A2991 RMK A01 T01950043  RH  037%=      5-min Rain = 0
KDC1 200255Z 27019G25KT 20/04 A2991 RMK A01 T01950043  RH  037%=      5-min Rain = 0
KDC1 200256Z 28019G25KT 20/04 A2991 RMK A01 T01960043  RH  037%=      5-min Rain = 0
KDC1 200257Z 27019KT 20/04 A2992 RMK A01 T01960044  RH  037%=      5-min Rain = 0
KDC1 200258Z 28023KT 20/05 A2991 RMK A01 T01960046  RH  037%=      5-min Rain = 0
KDC1 200259Z 28019KT 20/05 A2992 RMK A01 T01970047  RH  037%=      5-min Rain = 0
KDC1 200300Z 27019KT 20/05 A2992 RMK A01 T01970049  RH  038%=      5-min Rain = 0
KDC1 200301Z 27019KT 20/05 A2992 RMK A01 T01960050  RH  038%=      5-min Rain = 0
KDC1 200302Z 27021G26KT 20/05 A2992 RMK A01 T01950053  RH  039%=      5-min Rain = 0
KDC1 200303Z 27026G32KT 19/06 A2992 RMK A01 T01940057  RH  041%=      5-min Rain = 0
KDC1 200304Z 27026G31KT 19/06 A2992 RMK A01 T01930060  RH  042%=      5-min Rain = 0
KDC1 200305Z 27024G30KT 19/06 A2992 RMK A01 T01930061  RH  042%=      5-min Rain = 0
KDC1 200306Z 28023KT 19/06 A2992 RMK A01 T01920062  RH  043%=      5-min Rain = 0
KDC1 200307Z 28020KT 19/06 A2992 RMK A01 T01910062  RH  043%=      5-min Rain = 0
KDC1 200308Z 28021KT 19/06 A2992 RMK A01 T01900063  RH  043%=      5-min Rain = 0
KDC1 200309Z 28020KT 19/06 A2992 RMK A01 T01890063  RH  044%=      5-min Rain = 0
KDC1 200310Z 28022G27KT 19/07 A2992 RMK A01 T01880066  RH  045%=      5-min Rain = 0
KDC1 200311Z 28026G31KT 19/07 A2992 RMK A01 T01870070  RH  046%=      5-min Rain = 0
KDC1 200312Z 28024KT 19/07 A2992 RMK A01 T01870073  RH  048%=      5-min Rain = 0
KDC1 200313Z 28024G31KT 19/07 A2992 RMK A01 T01850074  RH  048%=      5-min Rain = 0
KDC1 200314Z 28026G31KT 18/08 A2992 RMK A01 T01840076  RH  049%=      5-min Rain = 0
KDC1 200315Z 28025G31KT 18/08 A2992 RMK A01 T01820079  RH  051%=      5-min Rain = 0
KDC1 200316Z 28026G32KT 18/08 A2992 RMK A01 T01810082  RH  053%=      5-min Rain = 0
KDC1 200317Z 28026G33KT 18/09 A2992 RMK A01 T01800085  RH  054%=      5-min Rain = 0
KDC1 200318Z 28025KT 18/09 A2992 RMK A01 T01780087  RH  055%=      5-min Rain = 0
KDC1 200319Z 28026KT 18/09 A2992 RMK A01 T01770089  RH  056%=      5-min Rain = 0
KDC1 200320Z 28026G33KT 18/09 A2992 RMK A01 T01760089  RH  057%=      5-min Rain = 0
KDC1 200321Z 28022KT 18/09 A2992 RMK A01 T01750091  RH  058%=      5-min Rain = 0
KDC1 200322Z 28023KT 17/09 A2992 RMK A01 T01740091  RH  058%=      5-min Rain = 0
KDC1 200323Z 28021G27KT 17/09 A2992 RMK A01 T01730092  RH  059%=      5-min Rain = 0
KDC1 200324Z 28020G25KT 17/09 A2992 RMK A01 T01720093  RH  060%=      5-min Rain = 0
KDC1 200325Z 28020KT 17/09 A2992 RMK A01 T01710093  RH  060%=      5-min Rain = 0
KDC1 200326Z 28021KT 17/09 A2992 RMK A01 T01700094  RH  061%=      5-min Rain = 0
KDC1 200327Z 29019G25KT 17/10 A2992 RMK A01 T01700095  RH  061%=      5-min Rain = 0
KDC1 200328Z 29017KT 17/10 A2992 RMK A01 T01690095  RH  062%=      5-min Rain = 0
KDC1 200329Z 29018KT 17/10 A2992 RMK A01 T01680096  RH  062%=      5-min Rain = 0
KDC1 200330Z 29017KT 17/10 A2992 RMK A01 T01680096  RH  063%=      5-min Rain = 0
KDC1 200331Z 29017KT 17/10 A2992 RMK A01 T01680097  RH  063%=      5-min Rain = 0
KDC1 200332Z 29017KT 17/10 A2992 RMK A01 T01680098  RH  063%=      5-min Rain = 0
KDC1 200333Z 28020G25KT 17/10 A2992 RMK A01 T01680098  RH  063%=      5-min Rain = 0
KDC1 200334Z 29018KT 17/10 A2992 RMK A01 T01680098  RH  063%=      5-min Rain = 0
KDC1 200335Z 29019KT 17/10 A2992 RMK A01 T01690099  RH  063%=      5-min Rain = 0
KDC1 200336Z 28017KT 17/10 A2992 RMK A01 T01690099  RH  063%=      5-min Rain = 0
KDC1 200337Z 28016KT 17/10 A2992 RMK A01 T01690099  RH  063%=      5-min Rain = 0
KDC1 200338Z 29016KT 17/10 A2992 RMK A01 T01690099  RH  063%=      5-min Rain = 0
KDC1 200339Z 28016KT 17/10 A2992 RMK A01 T01700099  RH  063%=      5-min Rain = 0
KDC1 200340Z 29014KT 17/10 A2992 RMK A01 T01700099  RH  063%=      5-min Rain = 0
KDC1 200341Z 29013KT 17/10 A2992 RMK A01 T01710098  RH  062%=      5-min Rain = 0
KDC1 200342Z 28013KT 17/10 A2992 RMK A01 T01710098  RH  062%=      5-min Rain = 0
KDC1 200343Z 28013KT 17/10 A2992 RMK A01 T01710098  RH  062%=      5-min Rain = 0
KDC1 200344Z 28014KT 17/10 A2992 RMK A01 T01720098  RH  062%=      5-min Rain = 0
KDC1 200345Z 29013KT 17/10 A2992 RMK A01 T01720098  RH  062%=      5-min Rain = 0
KDC1 200346Z 28012KT 17/10 A2992 RMK A01 T01720098  RH  062%=      5-min Rain = 0
KDC1 200347Z 28014KT 17/10 A2992 RMK A01 T01720098  RH  061%=      5-min Rain = 0
KDC1 200348Z 28013KT 17/10 A2992 RMK A01 T01730098  RH  061%=      5-min Rain = 0
KDC1 200349Z 28013KT 17/10 A2992 RMK A01 T01730097  RH  061%=      5-min Rain = 0
KDC1 200350Z 28011KT 17/10 A2992 RMK A01 T01740097  RH  060%=      5-min Rain = 0
KDC1 200351Z 28012KT 18/10 A2992 RMK A01 T01750097  RH  060%=      5-min Rain = 0
KDC1 200352Z 29013KT 17/10 A2992 RMK A01 T01740096  RH  060%=      5-min Rain = 0
KDC1 200353Z 29013KT 18/10 A2992 RMK A01 T01750096  RH  060%=      5-min Rain = 0
KDC1 200354Z 28012KT 18/10 A2992 RMK A01 T01760096  RH  060%=      5-min Rain = 0
KDC1 200355Z 28011KT 18/10 A2992 RMK A01 T01760096  RH  059%=      5-min Rain = 0
KDC1 200356Z 28011KT 18/10 A2992 RMK A01 T01760096  RH  059%=      5-min Rain = 0
KDC1 200357Z 28012KT 18/10 A2992 RMK A01 T01760095  RH  059%=      5-min Rain = 0
KDC1 200358Z 28012KT 18/09 A2992 RMK A01 T01760094  RH  059%=      5-min Rain = 0
KDC1 200359Z 28014KT 18/09 A2992 RMK A01 T01770094  RH  058%=      5-min Rain = 0
KDC1 200400Z 28012KT 18/09 A2992 RMK A01 T01780094  RH  058%=      5-min Rain = 0
KDC1 200401Z 28012KT 18/09 A2992 RMK A01 T01780093  RH  058%=      5-min Rain = 0
KDC1 200402Z 28012KT 18/09 A2992 RMK A01 T01790094  RH  057%=      5-min Rain = 0
KDC1 200403Z 28011KT 18/09 A2992 RMK A01 T01790093  RH  057%=      5-min Rain = 0
KDC1 200404Z 28012KT 18/09 A2992 RMK A01 T01780093  RH  057%=      5-min Rain = 0
KDC1 200405Z 27013KT 18/09 A2992 RMK A01 T01790092  RH  057%=      5-min Rain = 0
KDC1 200406Z 27013KT 18/09 A2992 RMK A01 T01800092  RH  056%=      5-min Rain = 0
KDC1 200407Z 27012KT 18/09 A2992 RMK A01 T01810091  RH  056%=      5-min Rain = 0
KDC1 200408Z 27015KT 18/09 A2992 RMK A01 T01810091  RH  056%=      5-min Rain = 0
KDC1 200409Z 27014KT 18/09 A2992 RMK A01 T01830091  RH  055%=      5-min Rain = 0
KDC1 200410Z 27014KT 18/09 A2992 RMK A01 T01830090  RH  055%=      5-min Rain = 0
KDC1 200411Z 27014KT 18/09 A2992 RMK A01 T01840090  RH  054%=      5-min Rain = 0
KDC1 200412Z 27015KT 19/09 A2992 RMK A01 T01850090  RH  054%=      5-min Rain = 0
KDC1 200413Z 27013KT 19/09 A2992 RMK A01 T01860089  RH  053%=      5-min Rain = 0
KDC1 200414Z 27011KT 19/09 A2992 RMK A01 T01860089  RH  053%=      5-min Rain = 0
KDC1 200415Z 27012KT 19/09 A2992 RMK A01 T01850090  RH  054%=      5-min Rain = 0
KDC1 200416Z 27012KT 18/09 A2992 RMK A01 T01840089  RH  054%=      5-min Rain = 0
KDC1 200417Z 27011KT 18/09 A2992 RMK A01 T01840089  RH  054%=      5-min Rain = 0
KDC1 200418Z 26012KT 18/09 A2993 RMK A01 T01840089  RH  054%=      5-min Rain = 0
KDC1 200419Z 27014KT 18/09 A2993 RMK A01 T01840089  RH  054%=      5-min Rain = 0
KDC1 200420Z 27013KT 19/09 A2993 RMK A01 T01850090  RH  054%=      5-min Rain = 0
KDC1 200421Z 26010KT 19/09 A2993 RMK A01 T01850091  RH  054%=      5-min Rain = 0
KDC1 200422Z 27007KT 19/09 A2993 RMK A01 T01850091  RH  054%=      5-min Rain = 0
KDC1 200423Z 26006KT 18/09 A2994 RMK A01 T01840092  RH  055%=      5-min Rain = 0
KDC1 200424Z 25006KT 18/09 A2994 RMK A01 T01830093  RH  055%=      5-min Rain = 0
KDC1 200425Z 25003KT 18/09 A2994 RMK A01 T01830093  RH  056%=      5-min Rain = 0
KDC1 200426Z 23003KT 18/09 A2995 RMK A01 T01830094  RH  056%=      5-min Rain = 0
KDC1 200427Z 23003KT 18/10 A2995 RMK A01 T01830095  RH  056%=      5-min Rain = 0
KDC1 200428Z 12003KT 18/10 A2995 RMK A01 T01830095  RH  057%=      5-min Rain = 0
KDC1 200429Z 10006KT 18/10 A2995 RMK A01 T01820096  RH  057%=      5-min Rain = 0
KDC1 200430Z 16005KT 18/10 A2995 RMK A01 T01800096  RH  058%=      5-min Rain = 0
KDC1 200431Z 08005KT 18/10 A2995 RMK A01 T01790096  RH  058%=      5-min Rain = 0
KDC1 200432Z 09004KT 18/10 A2995 RMK A01 T01770096  RH  059%=      5-min Rain = 0
KDC1 200433Z 11007KT 18/10 A2995 RMK A01 T01750097  RH  060%=      5-min Rain = 0
KDC1 200434Z 12008KT 17/10 A2995 RMK A01 T01720097  RH  061%=      5-min Rain = 0
KDC1 200435Z 12007KT 17/10 A2995 RMK A01 T01690097  RH  062%=      5-min Rain = 0
KDC1 200436Z 12005KT 17/10 A2995 RMK A01 T01680097  RH  063%=      5-min Rain = 0
KDC1 200437Z 12005KT 17/10 A2995 RMK A01 T01670097  RH  064%=      5-min Rain = 0
KDC1 200438Z 13007KT 17/10 A2995 RMK A01 T01660098  RH  064%=      5-min Rain = 0
KDC1 200439Z 13009KT 16/10 A2994 RMK A01 T01640098  RH  065%=      5-min Rain = 0
KDC1 200440Z 12009KT 16/10 A2994 RMK A01 T01630098  RH  065%=      5-min Rain = 0
KDC1 200441Z 12007KT 16/10 A2995 RMK A01 T01630098  RH  065%=      5-min Rain = 0
KDC1 200442Z 15007KT 16/10 A2995 RMK A01 T01640100  RH  065%=      5-min Rain = 0
KDC1 200443Z 16008KT 16/10 A2995 RMK A01 T01630099  RH  066%=      5-min Rain = 0
KDC1 200444Z 16006KT 16/10 A2995 RMK A01 T01620098  RH  066%=      5-min Rain = 0
KDC1 200445Z 17007KT 16/10 A2995 RMK A01 T01620099  RH  066%=      5-min Rain = 0
KDC1 200446Z 20004KT 17/10 A2995 RMK A01 T01650100  RH  065%=      5-min Rain = 0
KDC1 200447Z 21004KT 17/10 A2995 RMK A01 T01670100  RH  064%=      5-min Rain = 0
KDC1 200448Z 21005KT 17/10 A2995 RMK A01 T01690101  RH  064%=      5-min Rain = 0
KDC1 200449Z 22004KT 17/10 A2995 RMK A01 T01710101  RH  064%=      5-min Rain = 0
KDC1 200450Z 22004KT 17/10 A2995 RMK A01 T01720101  RH  063%=      5-min Rain = 0
KDC1 200451Z 22004KT 17/10 A2995 RMK A01 T01720101  RH  063%=      5-min Rain = 0
KDC1 200452Z 21005KT 17/10 A2995 RMK A01 T01720101  RH  063%=      5-min Rain = 0
KDC1 200453Z 23004KT 17/10 A2995 RMK A01 T01720102  RH  063%=      5-min Rain = 0
KDC1 200454Z 19005KT 17/10 A2995 RMK A01 T01720103  RH  064%=      5-min Rain = 0
KDC1 200455Z 22004KT 17/10 A2995 RMK A01 T01710103  RH  064%=      5-min Rain = 0
KDC1 200456Z 21004KT 17/10 A2995 RMK A01 T01710103  RH  064%=      5-min Rain = 0
KDC1 200457Z 22003KT 17/10 A2995 RMK A01 T01720104  RH  064%=      5-min Rain = 0
KDC1 200458Z 16005KT 17/10 A2995 RMK A01 T01710104  RH  064%=      5-min Rain = 0
KDC1 200459Z 15007KT 17/10 A2995 RMK A01 T01710103  RH  064%=      5-min Rain = 0
KDC1 200500Z 14006KT 17/10 A2995 RMK A01 T01690102  RH  065%=      5-min Rain = 0
KDC1 200501Z 15005KT 17/10 A2995 RMK A01 T01660103  RH  066%=      5-min Rain = 0
KDC1 200502Z 15005KT 17/10 A2995 RMK A01 T01650104  RH  067%=      5-min Rain = 0
KDC1 200503Z 13004KT 16/11 A2995 RMK A01 T01620105  RH  069%=      5-min Rain = 0
KDC1 200504Z 13006KT 16/11 A2995 RMK A01 T01600107  RH  070%=      5-min Rain = 0
KDC1 200505Z 14007KT 16/11 A2995 RMK A01 T01570108  RH  073%=      5-min Rain = 0
KDC1 200506Z 15007KT 16/11 A2995 RMK A01 T01550108  RH  073%=      5-min Rain = 0
KDC1 200507Z 15007KT 15/11 A2995 RMK A01 T01540108  RH  074%=      5-min Rain = 0
KDC1 200508Z 14009KT 15/11 A2995 RMK A01 T01530108  RH  075%=      5-min Rain = 0
KDC1 200509Z 14007KT 15/11 A2995 RMK A01 T01520108  RH  075%=      5-min Rain = 0
KDC1 200510Z 14008KT 15/11 A2995 RMK A01 T01510109  RH  076%=      5-min Rain = 0
KDC1 200511Z 14008KT 15/11 A2995 RMK A01 T01500110  RH  077%=      5-min Rain = 0
KDC1 200512Z 14008KT 15/11 A2995 RMK A01 T01500110  RH  077%=      5-min Rain = 0
KDC1 200513Z 14007KT 15/11 A2995 RMK A01 T01490110  RH  078%=      5-min Rain = 0
KDC1 200514Z 14007KT 15/11 A2995 RMK A01 T01480110  RH  078%=      5-min Rain = 0
KDC1 200515Z 13007KT 15/11 A2995 RMK A01 T01480111  RH  078%=      5-min Rain = 0
KDC1 200516Z 13006KT 15/11 A2995 RMK A01 T01470110  RH  079%=      5-min Rain = 0
KDC1 200517Z 13005KT 15/11 A2995 RMK A01 T01470111  RH  079%=      5-min Rain = 0
KDC1 200518Z 14004KT 15/11 A2995 RMK A01 T01470111  RH  079%=      5-min Rain = 0
KDC1 200519Z 14003KT 15/11 A2995 RMK A01 T01460112  RH  080%=      5-min Rain = 0
KDC1 200520Z 14003KT 15/11 A2995 RMK A01 T01460111  RH  080%=      5-min Rain = 0
KDC1 200521Z 15003KT 15/11 A2995 RMK A01 T01450112  RH  080%=      5-min Rain = 0
KDC1 200522Z 16002KT 15/11 A2995 RMK A01 T01450111  RH  080%=      5-min Rain = 0
KDC1 200523Z 16003KT 15/11 A2995 RMK A01 T01450112  RH  081%=      5-min Rain = 0
KDC1 200524Z 15004KT 15/11 A2994 RMK A01 T01450112  RH  081%=      5-min Rain = 0
KDC1 200525Z 16005KT 14/11 A2994 RMK A01 T01440112  RH  081%=      5-min Rain = 0
KDC1 200526Z 16004KT 14/11 A2994 RMK A01 T01430112  RH  082%=      5-min Rain = 0
KDC1 200527Z 17003KT 14/11 A2994 RMK A01 T01430112  RH  082%=      5-min Rain = 0
KDC1 200528Z 18003KT 14/11 A2994 RMK A01 T01430113  RH  082%=      5-min Rain = 0
KDC1 200529Z 19004KT 14/11 A2994 RMK A01 T01430113  RH  082%=      5-min Rain = 0
KDC1 200530Z 19003KT 14/11 A2994 RMK A01 T01430112  RH  082%=      5-min Rain = 0
KDC1 200531Z 19003KT 14/11 A2994 RMK A01 T01420113  RH  083%=      5-min Rain = 0
KDC1 200532Z 18004KT 14/11 A2994 RMK A01 T01420113  RH  083%=      5-min Rain = 0
KDC1 200533Z 18003KT 14/11 A2994 RMK A01 T01410114  RH  084%=      5-min Rain = 0
KDC1 200534Z 18003KT 14/11 A2994 RMK A01 T01410114  RH  084%=      5-min Rain = 0
KDC1 200535Z 19003KT 14/12 A2994 RMK A01 T01410115  RH  084%=      5-min Rain = 0
KDC1 200536Z 19003KT 14/12 A2994 RMK A01 T01400115  RH  085%=      5-min Rain = 0
KDC1 200537Z 18002KT 14/12 A2994 RMK A01 T01410116  RH  085%=      5-min Rain = 0
KDC1 200538Z 17003KT 14/12 A2993 RMK A01 T01400115  RH  085%=      5-min Rain = 0
KDC1 200539Z 16003KT 14/12 A2993 RMK A01 T01400115  RH  085%=      5-min Rain = 0
KDC1 200540Z 15003KT 14/12 A2993 RMK A01 T01400115  RH  085%=      5-min Rain = 0
KDC1 200541Z 13003KT 14/12 A2993 RMK A01 T01400115  RH  085%=      5-min Rain = 0
KDC1 200542Z 13003KT 14/12 A2993 RMK A01 T01400115  RH  085%=      5-min Rain = 0
KDC1 200543Z 13003KT 14/12 A2993 RMK A01 T01410115  RH  085%=      5-min Rain = 0
KDC1 200544Z 13003KT 14/12 A2993 RMK A01 T01410116  RH  085%=      5-min Rain = 0.01
KDC1 200545Z 12004KT 14/12 A2993 RMK A01 T01420117  RH  085%=      5-min Rain = 0
KDC1 200546Z 12005KT 14/12 A2993 RMK A01 T01410117  RH  085%=      5-min Rain = 0
KDC1 200547Z 11005KT 14/12 A2993 RMK A01 T01410116  RH  085%=      5-min Rain = 0
KDC1 200548Z 11006KT 14/12 A2993 RMK A01 T01400116  RH  085%=      5-min Rain = 0
KDC1 200549Z 11006KT 14/12 A2993 RMK A01 T01400116  RH  085%=      5-min Rain = 0
KDC1 200550Z 12006KT 14/12 A2993 RMK A01 T01400116  RH  086%=      5-min Rain = 0
KDC1 200551Z 12007KT 14/12 A2993 RMK A01 T01390117  RH  087%=      5-min Rain = 0
KDC1 200552Z 12007KT 14/12 A2993 RMK A01 T01380117  RH  087%=      5-min Rain = 0
KDC1 200553Z 12007KT 14/12 A2993 RMK A01 T01370118  RH  088%=      5-min Rain = 0
KDC1 200554Z 12007KT 14/12 A2993 RMK A01 T01360118  RH  089%=      5-min Rain = 0
KDC1 200555Z 12006KT 14/12 A2993 RMK A01 T01350119  RH  090%=      5-min Rain = 0
KDC1 200556Z 12006KT 13/12 A2993 RMK A01 T01340119  RH  091%=      5-min Rain = 0
KDC1 200557Z 13005KT 13/12 A2993 RMK A01 T01340119  RH  091%=      5-min Rain = 0
KDC1 200558Z 15004KT 13/12 A2993 RMK A01 T01330119  RH  091%=      5-min Rain = 0
KDC1 200559Z 15005KT 13/12 A2993 RMK A01 T01330119  RH  091%=      5-min Rain = 0

Page generated in 0.1443 seconds.